Flight Track Log - Related Links

Times and Time Zones

All times are in EDT time to prevent confusion due to time zone crossing. See the UAL139 flight status page for this flight to view local times or setup timezone preferences in your user account.

Time Position Orientation Groundspeed Altitude Reporting Facility
EDT Latitude Longitude Course Direction KTS MPH feet Rate Location/Type
Mon 03:56:39 PM 39.8903 -104.6960 180° South 92 106  Level FlightAware ADS-B
Mon 03:56:45 PM 39.8872 -104.6960 180° South 98 113 5,100 9,273 Climbing FlightAware ADS-B
Mon 03:57:12 PM 39.8671 -104.6960 180° South 161 185 5,100 585 Level FlightAware ADS-B
Mon 03:57:26 PM 39.8536 -104.6970 183° South 210 242 5,500 1,778 Climbing FlightAware ADS-B
Mon 03:57:39 PM 39.8409 -104.6970 180° South 215 247 5,900 1,622 Climbing FlightAware ADS-B
Mon 03:58:03 PM 39.8165 -104.6990 184° South 218 251 6,500 1,200 Climbing FlightAware ADS-B
Mon 03:58:09 PM 39.8107 -104.7010 195° South 236 272 6,500 818 Level FlightAware ADS-B
Mon 03:58:25 PM 39.7931 -104.7070 195° South 253 291 6,800 1,313 Climbing FlightAware ADS-B
Mon 03:58:41 PM 39.7735 -104.7150 197° South 269 310 7,200 1,636 Climbing FlightAware ADS-B
Mon 03:58:58 PM 39.7533 -104.7220 195° South 283 326 7,700 1,680 Climbing FlightAware ADS-B
Mon 03:59:06 PM 39.7438 -104.7280 206° Southwest 288 331 7,900 2,000 Climbing FlightAware ADS-B
Mon 03:59:10 PM 39.7390 -104.7320 213° Southwest 292 336 8,100 2,250 Climbing FlightAware ADS-B
Mon 03:59:14 PM 39.7349 -104.7360 217° Southwest 293 337 8,200 2,182 Climbing FlightAware ADS-B
Mon 03:59:21 PM 39.7278 -104.7460 227° Southwest 296 341 8,500 2,143 Climbing FlightAware ADS-B
Mon 03:59:28 PM 39.7229 -104.7570 240° Southwest 299 344 8,700 1,636 Climbing FlightAware ADS-B
Mon 03:59:32 PM 39.7209 -104.7630 247° West 300 345 8,800 2,308 Climbing FlightAware ADS-B
Mon 03:59:41 PM 39.7186 -104.7790 259° West 302 348 9,200 2,769 Climbing FlightAware ADS-B
Mon 03:59:45 PM 39.7186 -104.7860 270° West 303 349 9,400 2,000 Climbing FlightAware ADS-B
Mon 03:59:50 PM 39.7190 -104.7950 273° West 303 349 9,500 1,091 Climbing FlightAware ADS-B
Mon 03:59:56 PM 39.7201 -104.8060 277° West 302 348 9,600 1,000 Climbing FlightAware ADS-B
Mon 04:00:02 PM 39.7215 -104.8160 280° West 302 348 9,700 1,333 Climbing FlightAware ADS-B
Mon 04:00:05 PM 39.7228 -104.8220 286° West 302 348 9,800 1,200 Climbing FlightAware ADS-B
Mon 04:00:12 PM 39.7262 -104.8340 290° West 304 350 9,900 1,091 Climbing FlightAware ADS-B
Mon 04:00:16 PM 39.7288 -104.8410 296° West 307 353 10,000 1,895 Climbing FlightAware ADS-B
Mon 04:00:31 PM 39.7412 -104.8620 308° West 310 357 10,500 1,600 Climbing FlightAware ADS-B
Mon 04:01:01 PM 39.7700 -104.9070 310° West 335 386 11,200 1,400 Climbing FlightAware ADS-B
Mon 04:01:31 PM 39.8006 -104.9570 309° West 358 412 11,900 1,696 Climbing FlightAware ADS-B
Mon 04:01:47 PM 39.8172 -104.9840 309° West 362 417 12,500 2,182 Climbing FlightAware ADS-B
Mon 04:01:53 PM 39.8215 -104.9940 299° West 364 419 12,700 2,182 Climbing FlightAware ADS-B
Mon 04:01:58 PM 39.8250 -105.0050 293° West 366 421 12,900 2,250 Climbing FlightAware ADS-B
Mon 04:02:17 PM 39.8325 -105.0460 283° West 368 423 13,600 2,348 Climbing FlightAware ADS-B
Mon 04:03:07 PM 39.8573 -105.1500 287° West 368 423 15,600 2,370 Climbing FlightAware ADS-B
Mon 04:03:38 PM 39.8734 -105.2170 287° West 373 429 16,800 2,190 Climbing FlightAware ADS-B
Mon 04:04:10 PM 39.8888 -105.2860 286° West 378 435 17,900 2,133 Climbing FlightAware ADS-B
Mon 04:04:23 PM 39.8956 -105.3140 288° West 380 437 18,400 2,000 Climbing FlightAware ADS-B
Mon 04:04:34 PM 39.9039 -105.3390 293° West 381 438 18,700 1,929 Climbing FlightAware ADS-B
Mon 04:04:51 PM 39.9204 -105.3710 304° West 383 441 19,300 1,821 Climbing FlightAware ADS-B
Mon 04:05:30 PM 39.9611 -105.4440 306° West 391 450 20,400 1,714 Climbing FlightAware ADS-B
Mon 04:05:47 PM 39.9725 -105.4810 292° West 394 453 20,900 1,556 Climbing FlightAware ADS-B
Mon 04:06:24 PM 39.9969 -105.5650 291° West 407 468 21,800 1,465 Climbing FlightAware ADS-B
Mon 04:07:13 PM 40.0380 -105.6730 296° West 409 471 23,000 1,432 Climbing FlightAware ADS-B
Mon 04:07:52 PM 40.0741 -105.7570 299° West 421 484 23,900 1,459 Climbing FlightAware ADS-B
Mon 04:08:27 PM 40.1070 -105.8360 299° West 425 489 24,800 1,556 Climbing FlightAware ADS-B
Mon 04:08:46 PM 40.1241 -105.8800 297° West 422 486 25,300 1,059 Climbing FlightAware ADS-B
Mon 04:09:35 PM 40.1420 -106.0040 281° West 436 502 26,000 689 Climbing FlightAware ADS-B
Mon 04:09:47 PM 40.1446 -106.0360 276° West 434 499 26,000 1,091 Level FlightAware ADS-B
Mon 04:10:30 PM 40.1585 -106.1490 279° West 434 499 27,000 1,333 Climbing FlightAware ADS-B
Mon 04:11:17 PM 40.1730 -106.2690 279° West 445 512 28,000 1,429 Climbing FlightAware ADS-B
Mon 04:11:33 PM 40.1781 -106.3150 278° West 439 505 28,500 667 Climbing FlightAware ADS-B
Mon 04:12:11 PM 40.1860 -106.3890 278° West 445 512 28,600 1,219 Climbing FlightAware ADS-B
Mon 04:12:37 PM 40.1970 -106.4710 280° West 451 519 29,800 2,000 Climbing FlightAware ADS-B
Mon 04:13:17 PM 40.2110 -106.5840 279° West 452 520 30,800 1,275 Climbing FlightAware ADS-B
Mon 04:13:57 PM 40.2250 -106.6940 279° West 459 528 31,500 767 Climbing FlightAware ADS-B
Mon 04:14:43 PM 40.2410 -106.8240 279° West 474 545 31,900 533 Climbing FlightAware ADS-B
Mon 04:15:27 PM 40.2570 -106.9480 280° West 486 559 32,300 811 Climbing FlightAware ADS-B
Mon 04:15:57 PM 40.2670 -107.0300 279° West 486 559 32,900 529 Climbing FlightAware ADS-B
Mon 04:16:35 PM 40.2790 -107.1240 280° West 486 559 32,900 1,360 Level FlightAware ADS-B
Mon 04:17:12 PM 40.2950 -107.2540 279° West 481 554 34,600 2,000 Climbing FlightAware ADS-B
Mon 04:17:47 PM 40.3050 -107.3360 279° West 475 547 35,300 1,235 Climbing FlightAware ADS-B
Mon 04:18:20 PM 40.3180 -107.4400 279° West 471 542 36,000 1,200 Climbing FlightAware ADS-B
Mon 04:18:57 PM 40.3300 -107.5530 278° West 468 539 36,700 1,083 Climbing FlightAware ADS-B
Mon 04:19:32 PM 40.3390 -107.6500 277° West 464 534 37,300 957 Climbing FlightAware ADS-B
Mon 04:20:06 PM 40.3490 -107.7450 278° West 461 531 37,800 609 Climbing FlightAware ADS-B
Mon 04:20:41 PM 40.3570 -107.8330 277° West 460 529 38,000 174 Climbing FlightAware ADS-B
Mon 04:21:15 PM 40.3670 -107.9300 278° West 459 528 38,000  Level FlightAware ADS-B
Mon 04:21:50 PM 40.3750 -108.0120 277° West 460 529 38,000  Level FlightAware ADS-B
Mon 04:22:26 PM 40.3860 -108.1320 277° West 462 532 38,000  Level FlightAware ADS-B
Mon 04:23:02 PM 40.3960 -108.2330 277° West 465 535 38,000  Level FlightAware ADS-B
Mon 04:23:33 PM 40.4030 -108.3100 277° West 465 535 38,000  Level FlightAware ADS-B
Mon 04:24:18 PM 40.4150 -108.4420 277° West 466 536 38,000  Level FlightAware ADS-B
Mon 04:24:55 PM 40.4230 -108.5290 277° West 466 536 38,000  Level FlightAware ADS-B
Mon 04:25:31 PM 40.4340 -108.6490 277° West 465 535 38,000  Level FlightAware ADS-B
Mon 04:26:10 PM 40.4430 -108.7490 277° West 468 539 38,000  Level FlightAware ADS-B
Mon 04:26:45 PM 40.4530 -108.8600 277° West 473 544 38,000  Level FlightAware ADS-B
Mon 04:27:20 PM 40.4620 -108.9550 277° West 472 543 38,000  Level FlightAware ADS-B
Mon 04:27:50 PM 40.4690 -109.0330 277° West 469 540 38,000  Level FlightAware ADS-B
Mon 04:28:32 PM 40.4800 -109.1630 276° West 468 539 38,000  Level FlightAware ADS-B
Mon 04:29:13 PM 40.4880 -109.2540 277° West 466 536 38,000  Level FlightAware ADS-B
Mon 04:29:45 PM 40.4970 -109.3670 276° West 468 539 38,000  Level FlightAware ADS-B
Mon 04:30:21 PM 40.5050 -109.4630 276° West 470 541 38,000  Level FlightAware ADS-B
Mon 04:30:55 PM 40.5130 -109.5590 276° West 468 539 38,000  Level FlightAware ADS-B
Mon 04:31:29 PM 40.5220 -109.6600 277° West 465 535 38,000  Level FlightAware ADS-B
Mon 04:32:08 PM 40.5290 -109.7460 276° West 464 534 38,000  Level FlightAware ADS-B
Mon 04:32:47 PM 40.5360 -109.8390 276° West 464 534 38,000  Level FlightAware ADS-B
Mon 04:33:21 PM 40.5420 -109.9200 276° West 464 534 38,000  Level FlightAware ADS-B
Mon 04:33:57 PM 40.5490 -110.0060 276° West 464 534 38,000  Level FlightAware ADS-B
Mon 04:34:12 PM 40.5290 -109.7460 96° East 38,000  Level FlightAware ADS-B
Mon 04:34:34 PM 40.5630 -110.1820 276° West 462 532 38,000  Level FlightAware ADS-B
Mon 04:35:05 PM 40.5696 -110.2680 276° West 462 532 38,000  Level FlightAware ADS-B
Mon 04:35:36 PM 40.5760 -110.3530 276° West 462 532 38,000  Level FlightAware ADS-B
Mon 04:36:06 PM 40.5824 -110.4370 276° West 461 531 38,000  Level FlightAware ADS-B
Mon 04:36:36 PM 40.5886 -110.5220 276° West 461 531 38,000  Level FlightAware ADS-B
Mon 04:36:53 PM 40.5922 -110.5690 276° West 462 532 38,000  Level FlightAware ADS-B
Mon 04:37:07 PM 40.5972 -110.6070 280° West 463 533 38,000  Level FlightAware ADS-B
Mon 04:37:22 PM 40.6061 -110.6480 286° West 464 534 38,000  Level FlightAware ADS-B
Mon 04:37:58 PM 40.6312 -110.7440 289° West 465 535 38,000  Level FlightAware ADS-B
Mon 04:38:31 PM 40.6546 -110.8310 290° West 465 535 38,000  Level FlightAware ADS-B
Mon 04:38:41 PM 40.6622 -110.8590 290° West 465 535 38,000  Level FlightAware ADS-B
Mon 04:38:53 PM 40.6687 -110.8910 285° West 465 535 38,000  Level FlightAware ADS-B
Mon 04:38:58 PM 40.6705 -110.9050 280° West 465 535 38,000  Level FlightAware ADS-B
Mon 04:39:26 PM 40.6771 -110.9850 276° West 466 536 38,000  Level FlightAware ADS-B
Mon 04:39:56 PM 40.6803 -111.0700 273° West 466 536 38,000  Level FlightAware ADS-B
Mon 04:40:27 PM 40.6823 -111.1560 272° West 466 536 38,000  Level FlightAware ADS-B
Mon 04:40:57 PM 40.6847 -111.2400 272° West 465 535 38,000  Level FlightAware ADS-B
Mon 04:41:27 PM 40.6874 -111.3260 272° West 466 536 38,000  Level FlightAware ADS-B
Mon 04:41:57 PM 40.6901 -111.4110 272° West 462 532 38,000  Level FlightAware ADS-B
Mon 04:42:28 PM 40.6928 -111.4980 272° West 461 531 38,000  Level FlightAware ADS-B
Mon 04:42:58 PM 40.6954 -111.5820 272° West 460 529 38,000  Level FlightAware ADS-B
Mon 04:43:29 PM 40.6980 -111.6670 272° West 460 529 38,000  Level FlightAware ADS-B
Mon 04:43:59 PM 40.7005 -111.7530 272° West 460 529 38,000  Level FlightAware ADS-B
Mon 04:44:30 PM 40.7028 -111.8370 272° West 459 528 38,000  Level FlightAware ADS-B
Mon 04:45:00 PM 40.7051 -111.9220 272° West 459 528 38,000  Level FlightAware ADS-B
Mon 04:45:30 PM 40.7073 -112.0070 272° West 459 528 38,000  Level FlightAware ADS-B
Mon 04:46:02 PM 40.7095 -112.0940 272° West 460 529 38,000  Level FlightAware ADS-B
Mon 04:46:32 PM 40.7116 -112.1790 272° West 459 528 38,000  Level FlightAware ADS-B
Mon 04:47:10 PM 40.7142 -112.2860 272° West 458 527 38,000  Level FlightAware ADS-B
Mon 04:47:41 PM 40.7161 -112.3700 272° West 457 526 38,000  Level FlightAware ADS-B
Mon 04:48:11 PM 40.7180 -112.4550 272° West 456 525 38,000  Level FlightAware ADS-B
Mon 04:48:42 PM 40.7198 -112.5390 272° West 456 525 38,000  Level FlightAware ADS-B
Mon 04:49:12 PM 40.7208 -112.6240 271° West 457 526 38,000  Level FlightAware ADS-B
Mon 04:49:51 PM 40.7220 -112.7290 271° West 455 524 38,000  Level FlightAware ADS-B
Mon 04:50:20 PM 40.7221 -112.8110 270° West 454 522 38,000  Level FlightAware ADS-B
Mon 04:50:53 PM 40.7229 -112.9030 271° West 453 521 38,000  Level FlightAware ADS-B
Mon 04:51:26 PM 40.7235 -112.9950 271° West 453 521 38,000  Level FlightAware ADS-B
Mon 04:52:01 PM 40.7241 -113.0890 271° West 453 521 38,000  Level FlightAware ADS-B
Mon 04:52:32 PM 40.7246 -113.1760 270° West 453 521 38,000  Level FlightAware ADS-B
Mon 04:53:03 PM 40.7250 -113.2610 270° West 453 521 38,000  Level FlightAware ADS-B
Mon 04:53:58 PM 40.7256 -113.4130 270° West 454 522 38,000  Level FlightAware ADS-B
Mon 04:54:28 PM 40.7258 -113.4960 270° West 455 524 38,000  Level FlightAware ADS-B
Mon 04:55:07 PM 40.7260 -113.6020 270° West 457 526 38,000  Level FlightAware ADS-B
Mon 04:55:20 PM 40.7260 -113.6390 270° West 457 526 38,000  Level FlightAware ADS-B
Mon 04:55:48 PM 40.7265 -113.7180 271° West 459 528 38,000  Level FlightAware ADS-B
Mon 04:56:10 PM 40.7303 -113.7800 275° West 463 533 38,000  Level FlightAware ADS-B
Mon 04:56:26 PM 40.7354 -113.8240 279° West 467 537 38,000  Level FlightAware ADS-B
Mon 04:57:13 PM 40.7539 -113.9540 281° West 467 537 38,000  Level FlightAware ADS-B
Mon 04:57:43 PM 40.7655 -114.0380 280° West 467 537 38,000  Level FlightAware ADS-B
Mon 04:58:13 PM 40.7771 -114.1220 280° West 469 540 38,000  Level FlightAware ADS-B
Mon 04:58:45 PM 40.7896 -114.2120 280° West 472 543 38,000  Level FlightAware ADS-B
Mon 05:00:03 PM 40.8196 -114.4320 280° West 474 545 38,000  Level FlightAware ADS-B
Mon 05:00:34 PM 40.8317 -114.5210 280° West 476 548 38,000  Level FlightAware ADS-B
Mon 05:01:05 PM 40.8437 -114.6110 280° West 474 545 38,000  Level FlightAware ADS-B
Mon 05:01:37 PM 40.8555 -114.6990 280° West 471 542 38,000  Level FlightAware ADS-B
Mon 05:02:13 PM 40.8692 -114.8020 280° West 471 542 38,000  Level FlightAware ADS-B
Mon 05:05:47 PM 40.9488 -115.4180 280° West 479 551 38,000  Level FlightAware ADS-B
Mon 05:06:19 PM 40.9550 -115.4744 280° West 480 552 38,000  Level Salt Lake Center
Mon 05:07:20 PM 40.9817 -115.6692 280° West 481 554 38,000  Level Salt Lake Center
Mon 05:08:22 PM 41.0025 -115.8361 279° West 482 555 38,000  Level Salt Lake Center
Mon 05:09:24 PM 41.0258 -116.0311 279° West 482 555 38,000  Level Salt Lake Center
Mon 05:14:49 PM 41.1360 -116.9880 279° West 481 554 38,000  Level FlightAware ADS-B
Mon 05:15:25 PM 41.1480 -117.0930 279° West 483 556 38,000  Level FlightAware ADS-B
Mon 05:15:59 PM 41.1590 -117.1910 279° West 482 555 38,000  Level FlightAware ADS-B
Mon 05:16:34 PM 41.1700 -117.2930 278° West 480 552 38,000  Level FlightAware ADS-B
Mon 05:17:11 PM 41.1820 -117.4010 278° West 480 552 38,000  Level FlightAware ADS-B
Mon 05:17:43 PM 41.1920 -117.4970 278° West 481 554 38,000  Level FlightAware ADS-B
Mon 05:18:21 PM 41.2040 -117.6070 278° West 481 554 38,000  Level FlightAware ADS-B
Mon 05:18:55 PM 41.2150 -117.7070 278° West 484 557 38,000  Level FlightAware ADS-B
Mon 05:19:31 PM 41.2260 -117.8130 278° West 484 557 38,000  Level FlightAware ADS-B
Mon 05:20:05 PM 41.2360 -117.9130 278° West 482 555 38,000  Level FlightAware ADS-B
Mon 05:20:39 PM 41.2460 -118.0120 278° West 482 555 38,000  Level FlightAware ADS-B
Mon 05:21:11 PM 41.2560 -118.1040 278° West 481 554 38,000  Level FlightAware ADS-B
Mon 05:21:51 PM 41.2680 -118.2250 278° West 481 554 38,000  Level FlightAware ADS-B
Mon 05:22:27 PM 41.2780 -118.3280 277° West 483 556 38,000  Level FlightAware ADS-B
Mon 05:22:59 PM 41.2880 -118.4240 278° West 483 556 38,000  Level FlightAware ADS-B
Mon 05:23:40 PM 41.2940 -118.4860 277° West 482 555 38,000  Level FlightAware ADS-B
Mon 05:24:14 PM 41.3090 -118.6340 278° West 481 554 38,000  Level FlightAware ADS-B
Mon 05:24:56 PM 41.3210 -118.7580 277° West 482 555 38,000  Level FlightAware ADS-B
Mon 05:25:31 PM 41.3300 -118.8550 277° West 483 556 38,000  Level FlightAware ADS-B
Mon 05:26:06 PM 41.3410 -118.9660 278° West 484 557 38,000  Level FlightAware ADS-B
Mon 05:26:51 PM 41.3520 -119.0920 277° West 484 557 38,000  Level FlightAware ADS-B
Mon 05:27:27 PM 41.3630 -119.2030 278° West 482 555 38,000  Level FlightAware ADS-B
Mon 05:28:03 PM 41.3720 -119.3040 277° West 479 551 38,000  Level FlightAware ADS-B
Mon 05:28:33 PM 41.3800 -119.3970 277° West 476 548 38,000  Level FlightAware ADS-B
Mon 05:29:08 PM 41.3890 -119.4950 277° West 475 547 38,000  Level FlightAware ADS-B
Mon 05:29:42 PM 41.3980 -119.5920 277° West 477 549 38,000  Level FlightAware ADS-B
Mon 05:30:18 PM 41.4070 -119.7000 276° West 478 550 38,000  Level FlightAware ADS-B
Mon 05:30:48 PM 41.4140 -119.7720 277° West 478 550 38,000  Level FlightAware ADS-B
Mon 05:31:28 PM 41.4250 -119.9050 276° West 481 554 38,000  Level FlightAware ADS-B
Mon 05:32:03 PM 41.4340 -120.0070 277° West 482 555 38,000  Level FlightAware ADS-B
Mon 05:32:39 PM 41.4410 -120.1140 275° West 479 551 38,000  Level FlightAware ADS-B
Mon 05:33:15 PM 41.4470 -120.2190 274° West 480 552 38,000  Level FlightAware ADS-B
Mon 05:33:57 PM 41.4540 -120.3430 274° West 479 551 38,000  Level FlightAware ADS-B
Mon 05:34:32 PM 41.4600 -120.4440 275° West 480 552 38,000  Level FlightAware ADS-B
Mon 05:35:14 PM 41.4670 -120.5660 274° West 479 551 38,000  Level FlightAware ADS-B
Mon 05:35:44 PM 41.4720 -120.6530 274° West 480 552 38,000  Level FlightAware ADS-B
Mon 05:36:25 PM 41.4790 -120.7770 274° West 481 554 38,000  Level FlightAware ADS-B
Mon 05:37:00 PM 41.4850 -120.8830 274° West 480 552 38,000  Level FlightAware ADS-B
Mon 05:37:37 PM 41.4910 -120.9900 274° West 480 552 38,000  Level FlightAware ADS-B
Mon 05:38:19 PM 41.4980 -121.1140 274° West 480 552 38,000  Level FlightAware ADS-B
Mon 05:38:49 PM 41.5020 -121.2010 274° West 481 554 38,000  Level FlightAware ADS-B
Mon 05:39:25 PM 41.5080 -121.3090 274° West 482 555 38,000  Level FlightAware ADS-B
Mon 05:40:02 PM 41.5140 -121.4190 274° West 484 557 38,000  Level FlightAware ADS-B
Mon 05:40:38 PM 41.5190 -121.5260 274° West 485 558 38,000  Level FlightAware ADS-B
Mon 05:41:08 PM 41.5230 -121.6150 273° West 486 559 38,000  Level FlightAware ADS-B
Mon 05:41:48 PM 41.5290 -121.7350 274° West 485 558 38,000  Level FlightAware ADS-B
Mon 05:42:24 PM 41.5340 -121.8440 274° West 486 559 38,000  Level FlightAware ADS-B
Mon 05:43:01 PM 41.5390 -121.9500 274° West 485 558 38,000  Level FlightAware ADS-B
Mon 05:43:37 PM 41.5440 -122.0570 274° West 487 560 38,000  Level FlightAware ADS-B
Mon 05:44:13 PM 41.5490 -122.1630 274° West 486 559 38,000  Level FlightAware ADS-B
Mon 05:44:49 PM 41.5530 -122.2760 273° West 487 560 38,000  Level FlightAware ADS-B
Mon 05:45:20 PM 41.5570 -122.3710 273° West 486 559 38,000  Level FlightAware ADS-B
Mon 05:45:58 PM 41.5620 -122.4730 274° West 487 560 38,000  Level FlightAware ADS-B
Mon 05:46:32 PM 41.5660 -122.5830 273° West 488 562 38,000  Level FlightAware ADS-B
Mon 05:47:08 PM 41.5700 -122.6890 273° West 488 562 38,000  Level FlightAware ADS-B
Mon 05:47:44 PM 41.5740 -122.7910 273° West 488 562 38,000  Level FlightAware ADS-B
Mon 05:48:26 PM 41.5790 -122.9240 273° West 706 812 38,000  Level FlightAware ADS-B
Mon 05:49:41 PM 41.5870 -123.1470 273° West 487 560 38,000  Level FlightAware ADS-B
Mon 05:50:37 PM 41.5920 -123.3060 272° West 487 560 38,000  Level FlightAware ADS-B
Mon 05:51:14 PM 41.5960 -123.4190 273° West 486 559 38,000  Level FlightAware ADS-B
Mon 05:51:50 PM 41.5990 -123.5110 273° West 486 559 38,000  Level FlightAware ADS-B
Mon 05:52:27 PM 41.6010 -123.6060 272° West 486 559 38,000  Level FlightAware ADS-B
Mon 05:53:03 PM 41.6030 -123.6970 272° West 486 559 38,000  Level FlightAware ADS-B
Mon 05:53:39 PM 41.6060 -123.7890 273° West 486 559 38,000  Level FlightAware ADS-B
Mon 05:54:13 PM 41.6080 -123.8760 272° West 486 559 38,000  Level FlightAware ADS-B
Mon 05:54:49 PM 41.6100 -123.9680 272° West 486 559 38,000  Level FlightAware ADS-B
Mon 05:55:25 PM 41.6130 -124.0600 273° West 486 559 38,000  Level FlightAware ADS-B
Mon 05:56:02 PM 41.6150 -124.1550 272° West 486 559 38,000  Level FlightAware ADS-B
Mon 05:56:38 PM 41.6180 -124.2470 273° West 486 559 38,000  Level FlightAware ADS-B
Mon 05:57:14 PM 41.6200 -124.3390 272° West 486 559 38,000  Level FlightAware ADS-B
Mon 05:57:48 PM 41.6220 -124.4260 272° West 486 559 38,000  Level FlightAware ADS-B
Mon 05:58:24 PM 41.6250 -124.5180 273° West 486 559 38,000  Level FlightAware ADS-B
Mon 05:59:00 PM 41.6270 -124.6100 272° West 486 559 38,000  Level FlightAware ADS-B
Mon 05:59:36 PM 41.6290 -124.7020 272° West 486 559 38,000  Level FlightAware ADS-B
Mon 06:00:12 PM 41.6320 -124.7940 273° West 486 559 38,000 -61 Level FlightAware ADS-B
Mon 06:01:15 PM 41.6403 -125.2244 273° West 490 564 37,900 -48 Descending Seattle Center
Mon 06:02:16 PM 41.6431 -125.4058 271° West 489 563 37,900 49 Level Seattle Center
Mon 06:03:17 PM 41.6453 -125.5864 271° West 489 563 38,000  Climbing Seattle Center
Mon 06:04:18 PM 41.6475 -125.7681 271° West 490 564 37,900  Descending Seattle Center
Mon 06:05:19 PM 41.6500 -125.9483 271° West 488 562 38,000  Climbing Seattle Center
Mon 06:06:19 PM 41.6525 -126.1278 271° West 486 559 37,900 -50 Descending Seattle Center
Mon 06:07:20 PM 41.6525 -126.3100 270° West 490 564 37,900 49 Level Seattle Center
Mon 06:08:21 PM 41.6547 -126.5025 271° West 487 560 38,000 33 Climbing Seattle Center
Mon 06:10:21 PM 41.7833 -126.8333 299° West 483 556 38,000  Level Oakland Oceanic (ODAPS)
Mon 06:16:00 PM 42.1574 -127.7704 298° West 483 556 38,000  Level FlightAware Transoceanic
Mon 06:17:00 PM 42.2190 -127.9277 298° West 483 556 38,000  Level FlightAware Transoceanic
Mon 06:18:00 PM 42.2804 -128.0853 298° West 483 556 38,000  Level FlightAware Transoceanic
Mon 06:19:00 PM 42.3416 -128.2431 298° West 483 556 38,000  Level FlightAware Transoceanic
Mon 06:20:00 PM 42.4026 -128.4013 297° West 483 556 38,000  Level FlightAware Transoceanic
Mon 06:21:00 PM 42.4633 -128.5598 297° West 483 556 38,000  Level FlightAware Transoceanic
Mon 06:22:00 PM 42.5238 -128.7186 297° West 483 556 38,000  Level FlightAware Transoceanic
Mon 06:23:00 PM 42.5841 -128.8777 297° West 483 556 38,000  Level FlightAware Transoceanic
Mon 06:23:42 PM 42.6167 -128.9667 297° West 477 549 38,000  Level Oakland Oceanic (ODAPS)
Mon 06:24:00 PM 42.6442 -129.0371 297° West 483 556 38,000  Level FlightAware Transoceanic
Mon 06:25:00 PM 42.7041 -129.1968 297° West 483 556 38,000  Level FlightAware Transoceanic
Mon 06:26:00 PM 42.7637 -129.3568 297° West 483 556 38,000  Level FlightAware Transoceanic
Mon 06:27:00 PM 42.8231 -129.5172 297° West 483 556 38,000  Level FlightAware Transoceanic
Mon 06:28:00 PM 42.8823 -129.6778 297° West 483 556 38,000  Level FlightAware Transoceanic
Mon 06:29:00 PM 42.9413 -129.8387 297° West 483 556 38,000  Level FlightAware Transoceanic
Mon 06:30:00 PM 43.0000 -130.0000 296° West 477 549 38,000  Level FlightAware Transoceanic
Mon 06:30:36 PM 43.0000 -130.0000 296° West 467 537 38,000  Level Oakland Oceanic (ODAPS)
Mon 06:31:00 PM 43.0560 -130.1555 296° West 477 549 38,000  Level FlightAware Transoceanic
Mon 06:32:00 PM 43.1118 -130.3114 296° West 477 549 38,000  Level FlightAware Transoceanic
Mon 06:33:00 PM 43.1673 -130.4675 296° West 477 549 38,000  Level FlightAware Transoceanic
Mon 06:34:00 PM 43.2227 -130.6238 296° West 477 549 38,000  Level FlightAware Transoceanic
Mon 06:35:00 PM 43.2778 -130.7805 296° West 477 549 38,000  Level FlightAware Transoceanic
Mon 06:36:00 PM 43.3382 -130.9532 296° West 467 537 38,000  Level FlightAware Transoceanic
Mon 06:37:00 PM 43.3938 -131.1131 296° West 467 537 38,000  Level FlightAware Transoceanic
Mon 06:37:39 PM 43.4167 -131.1833 295° West 459 528 38,000  Level Oakland Oceanic (ODAPS)
Mon 06:38:00 PM 43.4492 -131.2732 295° West 467 537 38,000  Level FlightAware Transoceanic
Mon 06:39:00 PM 43.5043 -131.4337 295° West 467 537 38,000  Level FlightAware Transoceanic
Mon 06:40:00 PM 43.5592 -131.5945 295° West 467 537 38,000  Level FlightAware Transoceanic
Mon 06:41:00 PM 43.6139 -131.7555 295° West 467 537 38,000  Level FlightAware Transoceanic
Mon 06:42:00 PM 43.6684 -131.9169 295° West 467 537 38,000  Level FlightAware Transoceanic
Mon 06:42:22 PM 43.6833 -131.9500 295° West 458 527 38,000  Level Oakland Oceanic (ODAPS)
Mon 06:43:00 PM 43.7364 -132.1237 295° West 459 528 38,000  Level FlightAware Transoceanic
Mon 06:44:00 PM 43.7890 -132.2814 295° West 459 528 38,000  Level FlightAware Transoceanic
Mon 06:45:00 PM 43.8413 -132.4393 295° West 459 528 38,000  Level FlightAware Transoceanic
Mon 06:46:00 PM 43.8934 -132.5976 294° West 459 528 38,000  Level FlightAware Transoceanic
Mon 06:47:00 PM 43.9453 -132.7561 294° West 459 528 38,000  Level FlightAware Transoceanic
Mon 06:48:00 PM 43.9968 -132.9006 294° West 458 527 38,000  Level FlightAware Transoceanic
Mon 06:49:00 PM 44.0482 -133.0600 294° West 458 527 38,000  Level FlightAware Transoceanic
Mon 06:50:00 PM 44.0995 -133.2196 294° West 458 527 38,000  Level FlightAware Transoceanic
Mon 06:51:00 PM 44.1505 -133.3796 294° West 458 527 38,000  Level FlightAware Transoceanic
Mon 06:51:31 PM 44.1667 -133.4333 294° West 454 522 38,000  Level Oakland Oceanic (ODAPS)
Mon 06:52:00 PM 44.2013 -133.5398 294° West 458 527 38,000  Level FlightAware Transoceanic
Mon 06:53:00 PM 44.2519 -133.7003 294° West 458 527 38,000  Level FlightAware Transoceanic
Mon 06:54:00 PM 44.3023 -133.8611 294° West 458 527 38,000  Level FlightAware Transoceanic
Mon 06:55:00 PM 44.3524 -134.0221 293° West 458 527 38,000  Level FlightAware Transoceanic
Mon 06:56:00 PM 44.4023 -134.1835 293° West 458 527 38,000  Level FlightAware Transoceanic
Mon 06:57:00 PM 44.4653 -134.3912 293° West 454 522 38,000  Level FlightAware Transoceanic
Mon 06:58:00 PM 44.5143 -134.5518 293° West 454 522 38,000  Level FlightAware Transoceanic
Mon 06:59:00 PM 44.5631 -134.7127 293° West 454 522 38,000  Level FlightAware Transoceanic
Mon 07:00:00 PM 44.6116 -134.8738 293° West 454 522 38,000  Level FlightAware Transoceanic
Mon 07:01:00 PM 44.6599 -135.0352 293° West 454 522 38,000  Level FlightAware Transoceanic
Mon 07:02:00 PM 44.7080 -135.1969 293° West 454 522 38,000  Level FlightAware Transoceanic
Mon 07:03:00 PM 44.7559 -135.3588 293° West 454 522 38,000  Level FlightAware Transoceanic
Mon 07:04:00 PM 44.8035 -135.5210 292° West 454 522 38,000  Level FlightAware Transoceanic
Mon 07:05:00 PM 44.8509 -135.6835 292° West 454 522 38,000 723 Level FlightAware Transoceanic
Mon 07:05:23 PM 44.8500 -135.6833 292° West 451 519 39,000  Climbing Oakland Oceanic (ODAPS)
Mon 07:06:00 PM 44.8980 -135.8462 292° West 454 522 38,000 -619 Descending FlightAware Transoceanic
Mon 07:07:00 PM 44.9450 -136.0092 292° West 454 522 38,000  Level FlightAware Transoceanic
Mon 07:08:00 PM 44.9917 -136.1725 292° West 454 522 38,000  Level FlightAware Transoceanic
Mon 07:09:00 PM 45.0382 -136.3360 292° West 454 522 38,000  Level FlightAware Transoceanic
Mon 07:10:00 PM 45.0844 -136.4998 292° West 454 522 38,000 500 Level FlightAware Transoceanic
Mon 07:11:00 PM 45.1297 -136.6638 292° West 451 519 39,000 500 Climbing FlightAware Transoceanic
Mon 07:12:00 PM 45.1755 -136.8281 292° West 451 519 39,000  Level FlightAware Transoceanic
Mon 07:13:00 PM 45.2211 -136.9927 291° West 451 519 39,000  Level FlightAware Transoceanic
Mon 07:14:00 PM 45.2664 -137.1576 291° West 451 519 39,000  Level FlightAware Transoceanic
Mon 07:15:00 PM 45.3115 -137.3227 291° West 451 519 39,000  Level FlightAware Transoceanic
Mon 07:16:00 PM 45.3563 -137.4881 291° West 451 519 39,000  Level FlightAware Transoceanic
Mon 07:17:00 PM 45.4010 -137.6538 291° West 451 519 39,000  Level FlightAware Transoceanic
Mon 07:18:00 PM 45.4453 -137.8197 291° West 451 519 39,000  Level FlightAware Transoceanic
Mon 07:19:00 PM 45.4895 -137.9858 291° West 451 519 39,000  Level FlightAware Transoceanic
Mon 07:19:15 PM 45.4833 -137.9333 290° West 443 510 39,000  Level Oakland Oceanic (ODAPS)
Mon 07:20:00 PM 45.5334 -138.1523 291° West 451 519 39,000  Level FlightAware Transoceanic
Mon 07:21:00 PM 45.5770 -138.3190 290° West 451 519 39,000  Level FlightAware Transoceanic
Mon 07:22:00 PM 45.6204 -138.4859 290° West 451 519 39,000  Level FlightAware Transoceanic
Mon 07:23:00 PM 45.6636 -138.6531 290° West 451 519 39,000  Level FlightAware Transoceanic
Mon 07:24:00 PM 45.7065 -138.8206 290° West 451 519 39,000  Level FlightAware Transoceanic
Mon 07:25:00 PM 45.7264 -138.8824 290° West 443 510 39,000  Level FlightAware Transoceanic
Mon 07:26:00 PM 45.7662 -139.0414 290° West 443 510 39,000  Level FlightAware Transoceanic
Mon 07:27:00 PM 45.8057 -139.2006 290° West 443 510 39,000  Level FlightAware Transoceanic
Mon 07:28:00 PM 45.8450 -139.3600 289° West 443 510 39,000  Level FlightAware Transoceanic
Mon 07:29:00 PM 45.8841 -139.5197 289° West 443 510 39,000  Level FlightAware Transoceanic
Mon 07:30:00 PM 45.9230 -139.6796 289° West 443 510 39,000  Level FlightAware Transoceanic
Mon 07:31:00 PM 45.9616 -139.8397 289° West 443 510 39,000  Level FlightAware Transoceanic
Mon 07:32:00 PM 46.0000 -140.0000 298° West 443 510 39,000  Level FlightAware Transoceanic
Mon 07:32:05 PM 46.0000 -140.0000 298° West 443 510 39,000  Level Oakland Oceanic (ODAPS)
Mon 07:33:00 PM 46.0588 -140.1626 297° West 443 510 39,000  Level FlightAware Transoceanic
Mon 07:33:08 PM 46.0667 -140.1833 297° West 444 511 39,000  Level Oakland Oceanic (ODAPS)
Mon 07:34:00 PM 46.1174 -140.3256 297° West 443 510 39,000  Level FlightAware Transoceanic
Mon 07:35:00 PM 46.1758 -140.4889 297° West 443 510 39,000  Level FlightAware Transoceanic
Mon 07:36:00 PM 46.2339 -140.6526 297° West 443 510 39,000  Level FlightAware Transoceanic
Mon 07:37:00 PM 46.2918 -140.8166 297° West 443 510 39,000  Level FlightAware Transoceanic
Mon 07:38:00 PM 46.3380 -140.9481 297° West 443 510 39,000  Level FlightAware Transoceanic
Mon 07:39:00 PM 46.4021 -141.1310 297° West 444 511 39,000  Level FlightAware Transoceanic
Mon 07:40:00 PM 46.4573 -141.2901 297° West 444 511 39,000  Level FlightAware Transoceanic
Mon 07:41:00 PM 46.5122 -141.4494 297° West 444 511 39,000  Level FlightAware Transoceanic
Mon 07:42:00 PM 46.5669 -141.6092 296° West 444 511 39,000  Level FlightAware Transoceanic
Mon 07:43:00 PM 46.6214 -141.7692 296° West 444 511 39,000  Level FlightAware Transoceanic
Mon 07:44:00 PM 46.6757 -141.9296 296° West 444 511 39,000  Level FlightAware Transoceanic
Mon 07:45:00 PM 46.7297 -142.0902 296° West 444 511 39,000  Level FlightAware Transoceanic
Mon 07:46:00 PM 46.7835 -142.2512 296° West 444 511 39,000  Level FlightAware Transoceanic
Mon 07:46:59 PM 46.8333 -142.4000 296° West 446 513 39,000  Level Oakland Oceanic (ODAPS)
Mon 07:47:00 PM 46.8371 -142.4126 296° West 444 511 39,000  Level FlightAware Transoceanic
Mon 07:48:00 PM 46.8905 -142.5742 296° West 444 511 39,000  Level FlightAware Transoceanic
Mon 07:49:00 PM 46.9436 -142.7362 296° West 444 511 39,000  Level FlightAware Transoceanic
Mon 07:50:00 PM 46.9965 -142.8985 295° West 444 511 39,000  Level FlightAware Transoceanic
Mon 07:51:00 PM 47.0492 -143.0611 295° West 444 511 39,000  Level FlightAware Transoceanic
Mon 07:52:00 PM 47.1016 -143.2240 295° West 444 511 39,000  Level FlightAware Transoceanic
Mon 07:53:00 PM 47.1506 -143.3762 295° West 446 513 39,000  Level FlightAware Transoceanic
Mon 07:54:00 PM 47.2027 -143.5401 295° West 446 513 39,000  Level FlightAware Transoceanic
Mon 07:55:00 PM 47.2545 -143.7042 295° West 446 513 39,000  Level FlightAware Transoceanic
Mon 07:56:00 PM 47.3061 -143.8687 295° West 446 513 39,000  Level FlightAware Transoceanic
Mon 07:57:00 PM 47.3575 -144.0335 295° West 446 513 39,000  Level FlightAware Transoceanic
Mon 07:58:00 PM 47.4086 -144.1986 295° West 446 513 39,000  Level FlightAware Transoceanic
Mon 07:59:00 PM 47.4595 -144.3640 294° West 446 513 39,000  Level FlightAware Transoceanic
Mon 08:00:00 PM 47.5102 -144.5298 294° West 446 513 39,000  Level FlightAware Transoceanic
Mon 08:00:51 PM 47.5500 -144.6667 294° West 439 505 39,000  Level Oakland Oceanic (ODAPS)
Mon 08:01:00 PM 47.5606 -144.6958 294° West 446 513 39,000  Level FlightAware Transoceanic
Mon 08:02:00 PM 47.6108 -144.8622 294° West 446 513 39,000  Level FlightAware Transoceanic
Mon 08:03:00 PM 47.6607 -145.0289 294° West 446 513 39,000  Level FlightAware Transoceanic
Mon 08:04:00 PM 47.7104 -145.1960 294° West 446 513 39,000  Level FlightAware Transoceanic
Mon 08:05:00 PM 47.7599 -145.3633 294° West 446 513 39,000  Level FlightAware Transoceanic
Mon 08:06:00 PM 47.8004 -145.5063 294° West 439 505 39,000  Level FlightAware Transoceanic
Mon 08:07:00 PM 47.8497 -145.6751 293° West 439 505 39,000  Level FlightAware Transoceanic
Mon 08:08:00 PM 47.8988 -145.8443 293° West 439 505 39,000  Level FlightAware Transoceanic
Mon 08:09:00 PM 47.9476 -146.0139 293° West 439 505 39,000  Level FlightAware Transoceanic
Mon 08:10:00 PM 47.9962 -146.1837 293° West 439 505 39,000  Level FlightAware Transoceanic
Mon 08:11:00 PM 48.0445 -146.3539 293° West 439 505 39,000  Level FlightAware Transoceanic
Mon 08:12:00 PM 48.0926 -146.5244 293° West 439 505 39,000  Level FlightAware Transoceanic
Mon 08:13:00 PM 48.1404 -146.6952 293° West 439 505 39,000  Level FlightAware Transoceanic
Mon 08:14:00 PM 48.1880 -146.8663 293° West 439 505 39,000 583 Level FlightAware Transoceanic
Mon 08:14:43 PM 48.2333 -147.0333 292° West 462 532 40,000  Climbing Oakland Oceanic (ODAPS)
Mon 08:15:00 PM 48.2353 -147.0377 292° West 439 505 39,000 -779 Descending FlightAware Transoceanic
Mon 08:16:00 PM 48.2824 -147.2095 292° West 439 505 39,000  Level FlightAware Transoceanic
Mon 08:17:00 PM 48.3292 -147.3815 292° West 439 505 39,000  Level FlightAware Transoceanic
Mon 08:18:00 PM 48.3758 -147.5539 292° West 439 505 39,000  Level FlightAware Transoceanic
Mon 08:19:00 PM 48.4221 -147.7266 292° West 439 505 39,000 500 Level FlightAware Transoceanic
Mon 08:20:00 PM 48.4811 -147.9507 292° West 462 532 40,000 500 Climbing FlightAware Transoceanic
Mon 08:21:00 PM 48.5297 -148.1353 292° West 462 532 40,000  Level FlightAware Transoceanic
Mon 08:22:00 PM 48.5781 -148.3201 291° West 462 532 40,000  Level FlightAware Transoceanic
Mon 08:23:00 PM 48.6262 -148.5054 291° West 462 532 40,000  Level FlightAware Transoceanic
Mon 08:24:00 PM 48.6740 -148.6910 291° West 462 532 40,000  Level FlightAware Transoceanic
Mon 08:25:00 PM 48.7215 -148.8770 291° West 462 532 40,000  Level FlightAware Transoceanic
Mon 08:26:00 PM 48.7686 -149.0633 291° West 462 532 40,000  Level FlightAware Transoceanic
Mon 08:27:00 PM 48.8155 -149.2499 291° West 462 532 40,000  Level FlightAware Transoceanic
Mon 08:28:00 PM 48.8621 -149.4369 291° West 462 532 40,000  Level FlightAware Transoceanic
Mon 08:28:35 PM 48.8833 -149.5500 292° West 477 549 40,000  Level Oakland Oceanic (ODAPS)
Mon 08:29:00 PM 48.9084 -149.6243 291° West 462 532 40,000  Level FlightAware Transoceanic
Mon 08:30:00 PM 48.9543 -149.8120 290° West 462 532 40,000  Level FlightAware Transoceanic
Mon 08:31:00 PM 49.0000 -150.0000 274° West 462 532 40,000  Level FlightAware Transoceanic
Mon 08:31:04 PM 49.0000 -150.0000 274° West 473 544 40,000  Level Oakland Oceanic (ODAPS)
Mon 08:32:00 PM 49.0085 -150.1995 274° West 462 532 40,000  Level FlightAware Transoceanic
Mon 08:33:00 PM 49.0166 -150.3990 273° West 462 532 40,000  Level FlightAware Transoceanic
Mon 08:34:00 PM 49.0248 -150.6108 273° West 477 549 40,000  Level FlightAware Transoceanic
Mon 08:35:00 PM 49.0324 -150.8145 273° West 477 549 40,000  Level FlightAware Transoceanic
Mon 08:36:00 PM 49.0396 -151.0183 273° West 477 549 40,000  Level FlightAware Transoceanic
Mon 08:37:00 PM 49.0456 -151.1977 273° West 473 544 40,000  Level FlightAware Transoceanic
Mon 08:38:00 PM 49.0520 -151.3975 273° West 473 544 40,000  Level FlightAware Transoceanic
Mon 08:39:00 PM 49.0581 -151.5974 273° West 473 544 40,000  Level FlightAware Transoceanic
Mon 08:40:00 PM 49.0638 -151.7973 272° West 473 544 40,000  Level FlightAware Transoceanic
Mon 08:41:00 PM 49.0692 -151.9972 272° West 473 544 40,000  Level FlightAware Transoceanic
Mon 08:42:00 PM 49.0742 -152.1972 272° West 473 544 40,000  Level FlightAware Transoceanic
Mon 08:42:27 PM 49.0833 -152.2833 272° West 485 558 40,000  Level Oakland Oceanic (ODAPS)
Mon 08:43:00 PM 49.0789 -152.3972 272° West 473 544 40,000  Level FlightAware Transoceanic
Mon 08:44:00 PM 49.0832 -152.5973 272° West 473 544 40,000  Level FlightAware Transoceanic
Mon 08:45:00 PM 49.0872 -152.7974 272° West 473 544 40,000  Level FlightAware Transoceanic
Mon 08:46:00 PM 49.0908 -152.9976 272° West 473 544 40,000  Level FlightAware Transoceanic
Mon 08:47:00 PM 49.0941 -153.1977 271° West 473 544 40,000  Level FlightAware Transoceanic
Mon 08:48:00 PM 49.0970 -153.3979 271° West 473 544 40,000  Level FlightAware Transoceanic
Mon 08:49:00 PM 49.1067 -153.7055 271° West 485 558 40,000  Level FlightAware Transoceanic
Mon 08:50:00 PM 49.1086 -153.9088 271° West 485 558 40,000  Level FlightAware Transoceanic
Mon 08:51:00 PM 49.1101 -154.1120 271° West 485 558 40,000  Level FlightAware Transoceanic
Mon 08:52:00 PM 49.1113 -154.3153 270° West 485 558 40,000  Level FlightAware Transoceanic
Mon 08:53:00 PM 49.1122 -154.5186 270° West 485 558 40,000  Level FlightAware Transoceanic
Mon 08:54:00 PM 49.1127 -154.7219 270° West 485 558 40,000  Level FlightAware Transoceanic
Mon 08:55:00 PM 49.1128 -154.9252 270° West 485 558 40,000  Level FlightAware Transoceanic
Mon 08:56:00 PM 49.1125 -155.1285 270° West 485 558 40,000  Level FlightAware Transoceanic
Mon 08:56:19 PM 49.1000 -155.1333 270° West 492 566 40,000  Level Oakland Oceanic (ODAPS)
Mon 08:57:00 PM 49.1119 -155.3318 270° West 485 558 40,000  Level FlightAware Transoceanic
Mon 08:58:00 PM 49.1110 -155.5351 270° West 485 558 40,000  Level FlightAware Transoceanic
Mon 08:59:00 PM 49.1097 -155.7384 269° West 485 558 40,000  Level FlightAware Transoceanic
Mon 09:00:00 PM 49.1080 -155.9417 269° West 485 558 40,000  Level FlightAware Transoceanic
Mon 09:01:00 PM 49.1060 -156.1449 269° West 485 558 40,000  Level FlightAware Transoceanic
Mon 09:02:00 PM 49.0942 -156.3515 269° West 492 566 40,000  Level FlightAware Transoceanic
Mon 09:03:00 PM 49.0920 -156.5545 269° West 492 566 40,000  Level FlightAware Transoceanic
Mon 09:04:00 PM 49.0894 -156.7575 269° West 492 566 40,000  Level FlightAware Transoceanic
Mon 09:05:00 PM 49.0865 -156.9604 269° West 492 566 40,000  Level FlightAware Transoceanic
Mon 09:06:00 PM 49.0832 -157.1634 269° West 492 566 40,000  Level FlightAware Transoceanic
Mon 09:07:00 PM 49.0796 -157.3663 268° West 492 566 40,000  Level FlightAware Transoceanic
Mon 09:08:00 PM 49.0756 -157.5691 268° West 492 566 40,000  Level FlightAware Transoceanic
Mon 09:09:00 PM 49.0712 -157.7719 268° West 492 566 40,000  Level FlightAware Transoceanic
Mon 09:10:00 PM 49.0665 -157.9747 268° West 492 566 40,000  Level FlightAware Transoceanic
Mon 09:10:12 PM 49.0667 -158.0500 268° West 493 567 40,000  Level Oakland Oceanic (ODAPS)
Mon 09:11:00 PM 49.0615 -158.1775 268° West 492 566 40,000  Level FlightAware Transoceanic
Mon 09:12:00 PM 49.0561 -158.3802 268° West 492 566 40,000  Level FlightAware Transoceanic
Mon 09:13:00 PM 49.0503 -158.5829 267° West 492 566 40,000  Level FlightAware Transoceanic
Mon 09:14:00 PM 49.0442 -158.7855 267° West 492 566 40,000  Level FlightAware Transoceanic
Mon 09:15:00 PM 49.0377 -158.9881 267° West 492 566 40,000  Level FlightAware Transoceanic
Mon 09:16:00 PM 49.0259 -159.3506 267° West 493 567 40,000  Level FlightAware Transoceanic
Mon 09:17:00 PM 49.0177 -159.5671 267° West 493 567 40,000  Level FlightAware Transoceanic
Mon 09:18:00 PM 49.0090 -159.7836 266° West 493 567 40,000  Level FlightAware Transoceanic
Mon 09:19:00 PM 49.0000 -160.0000 274° West 493 567 40,000  Level FlightAware Transoceanic
Mon 09:19:29 PM 49.0000 -160.0000 274° West 500 575 40,000  Level Oakland Oceanic (ODAPS)
Mon 09:20:00 PM 49.0088 -160.2078 274° West 493 567 40,000  Level FlightAware Transoceanic
Mon 09:21:00 PM 49.0173 -160.4156 273° West 493 567 40,000  Level FlightAware Transoceanic
Mon 09:22:00 PM 49.0253 -160.6235 273° West 493 567 40,000  Level FlightAware Transoceanic
Mon 09:23:00 PM 49.0330 -160.8315 273° West 493 567 40,000  Level FlightAware Transoceanic
Mon 09:24:00 PM 49.0403 -161.0395 273° West 493 567 40,000  Level FlightAware Transoceanic
Mon 09:24:04 PM 49.0333 -160.9667 273° West 504 580 40,000  Level Oakland Oceanic (ODAPS)
Mon 09:25:00 PM 49.0473 -161.2476 273° West 500 575 40,000  Level FlightAware Transoceanic
Mon 09:26:00 PM 49.0538 -161.4558 273° West 500 575 40,000  Level FlightAware Transoceanic
Mon 09:27:00 PM 49.0600 -161.6640 273° West 500 575 40,000  Level FlightAware Transoceanic
Mon 09:28:00 PM 49.0659 -161.8722 272° West 500 575 40,000  Level FlightAware Transoceanic
Mon 09:29:00 PM 49.0713 -162.0805 272° West 500 575 40,000  Level FlightAware Transoceanic
Mon 09:30:00 PM 49.0718 -162.2560 272° West 504 580 40,000  Level FlightAware Transoceanic
Mon 09:31:00 PM 49.0768 -162.4711 272° West 504 580 40,000  Level FlightAware Transoceanic
Mon 09:32:00 PM 49.0814 -162.6862 272° West 504 580 40,000  Level FlightAware Transoceanic
Mon 09:33:00 PM 49.0856 -162.9013 272° West 504 580 40,000  Level FlightAware Transoceanic
Mon 09:34:00 PM 49.0894 -163.1165 271° West 504 580 40,000  Level FlightAware Transoceanic
Mon 09:35:00 PM 49.0928 -163.3317 271° West 504 580 40,000  Level FlightAware Transoceanic
Mon 09:36:00 PM 49.0958 -163.5470 271° West 504 580 40,000  Level FlightAware Transoceanic
Mon 09:37:00 PM 49.0984 -163.7623 271° West 504 580 40,000  Level FlightAware Transoceanic
Mon 09:37:56 PM 49.1000 -163.9167 271° West 507 583 40,000  Level Oakland Oceanic (ODAPS)
Mon 09:38:00 PM 49.1006 -163.9775 271° West 504 580 40,000  Level FlightAware Transoceanic
Mon 09:39:00 PM 49.1024 -164.1928 271° West 504 580 40,000  Level FlightAware Transoceanic
Mon 09:40:00 PM 49.1039 -164.4082 270° West 504 580 40,000  Level FlightAware Transoceanic
Mon 09:41:00 PM 49.1049 -164.6235 270° West 504 580 40,000  Level FlightAware Transoceanic
Mon 09:42:00 PM 49.1055 -164.8388 270° West 504 580 40,000  Level FlightAware Transoceanic
Mon 09:43:00 PM 49.1057 -165.0542 270° West 504 580 40,000  Level FlightAware Transoceanic
Mon 09:44:00 PM 49.1055 -165.2217 270° West 507 583 40,000  Level FlightAware Transoceanic
Mon 09:45:00 PM 49.1050 -165.4392 270° West 507 583 40,000  Level FlightAware Transoceanic
Mon 09:46:00 PM 49.1041 -165.6567 270° West 507 583 40,000  Level FlightAware Transoceanic
Mon 09:47:00 PM 49.1027 -165.8742 269° West 507 583 40,000  Level FlightAware Transoceanic
Mon 09:48:00 PM 49.1010 -166.0917 269° West 507 583 40,000  Level FlightAware Transoceanic
Mon 09:49:00 PM 49.0989 -166.3091 269° West 507 583 40,000  Level FlightAware Transoceanic
Mon 09:50:00 PM 49.0963 -166.5266 269° West 507 583 40,000  Level FlightAware Transoceanic
Mon 09:51:00 PM 49.0933 -166.7440 269° West 507 583 40,000  Level FlightAware Transoceanic
Mon 09:51:49 PM 49.1000 -166.9000 268° West 511 588 40,000  Level Oakland Oceanic (ODAPS)
Mon 09:52:00 PM 49.0900 -166.9614 269° West 507 583 40,000  Level FlightAware Transoceanic
Mon 09:53:00 PM 49.0862 -167.1788 268° West 507 583 40,000  Level FlightAware Transoceanic
Mon 09:54:00 PM 49.0820 -167.3961 268° West 507 583 40,000  Level FlightAware Transoceanic
Mon 09:55:00 PM 49.0774 -167.6134 268° West 507 583 40,000  Level FlightAware Transoceanic
Mon 09:56:00 PM 49.0724 -167.8306 268° West 507 583 40,000  Level FlightAware Transoceanic
Mon 09:57:00 PM 49.0670 -168.0478 268° West 507 583 40,000  Level FlightAware Transoceanic
Mon 09:58:00 PM 49.0673 -168.2301 267° West 511 588 40,000  Level FlightAware Transoceanic
Mon 09:59:00 PM 49.0604 -168.4516 267° West 511 588 40,000  Level FlightAware Transoceanic
Mon 10:00:00 PM 49.0530 -168.6730 267° West 511 588 40,000  Level FlightAware Transoceanic
Mon 10:01:00 PM 49.0452 -168.8943 267° West 511 588 40,000  Level FlightAware Transoceanic
Mon 10:02:00 PM 49.0370 -169.1156 267° West 511 588 40,000  Level FlightAware Transoceanic
Mon 10:03:00 PM 49.0284 -169.3369 267° West 511 588 40,000  Level FlightAware Transoceanic
Mon 10:04:00 PM 49.0194 -169.5580 266° West 511 588 40,000  Level FlightAware Transoceanic
Mon 10:05:00 PM 49.0099 -169.7790 266° West 511 588 40,000  Level FlightAware Transoceanic
Mon 10:05:40 PM 49.0000 -169.9167 270° West 493 567 40,000  Level Oakland Oceanic (ODAPS)
Mon 10:06:00 PM 49.0000 -170.0000 265° West 511 588 40,000  Level FlightAware Transoceanic
Mon 10:06:04 PM 49.0000 -170.0000 265° West 522 601 40,000  Level Oakland Oceanic (ODAPS)
Mon 10:07:00 PM 48.9881 -170.2118 265° West 511 588 40,000  Level FlightAware Transoceanic
Mon 10:08:00 PM 48.9758 -170.4236 265° West 511 588 40,000  Level FlightAware Transoceanic
Mon 10:09:00 PM 48.9632 -170.6352 265° West 511 588 40,000  Level FlightAware Transoceanic
Mon 10:10:00 PM 48.9501 -170.8467 265° West 511 588 40,000  Level FlightAware Transoceanic
Mon 10:11:00 PM 48.9366 -171.0581 264° West 511 588 40,000  Level FlightAware Transoceanic
Mon 10:12:00 PM 48.9192 -171.3245 264° West 522 601 40,000  Level FlightAware Transoceanic
Mon 10:13:00 PM 48.9042 -171.5448 264° West 522 601 40,000  Level FlightAware Transoceanic
Mon 10:14:00 PM 48.8888 -171.7650 264° West 522 601 40,000  Level FlightAware Transoceanic
Mon 10:15:00 PM 48.8731 -171.9851 264° West 522 601 40,000  Level FlightAware Transoceanic
Mon 10:16:00 PM 48.8568 -172.2050 264° West 522 601 40,000  Level FlightAware Transoceanic
Mon 10:17:00 PM 48.8402 -172.4248 263° West 522 601 40,000  Level FlightAware Transoceanic
Mon 10:18:00 PM 48.8232 -172.6444 263° West 522 601 40,000  Level FlightAware Transoceanic
Mon 10:19:00 PM 48.8057 -172.8638 263° West 522 601 40,000  Level FlightAware Transoceanic
Mon 10:19:32 PM 48.8000 -172.9667 263° West 524 603 40,000  Level Oakland Oceanic (ODAPS)
Mon 10:20:00 PM 48.7879 -173.0831 263° West 522 601 40,000  Level FlightAware Transoceanic
Mon 10:21:00 PM 48.7696 -173.3023 263° West 522 601 40,000  Level FlightAware Transoceanic
Mon 10:22:00 PM 48.7509 -173.5213 263° West 522 601 40,000  Level FlightAware Transoceanic
Mon 10:23:00 PM 48.7318 -173.7401 262° West 522 601 40,000  Level FlightAware Transoceanic
Mon 10:24:00 PM 48.7122 -173.9588 262° West 522 601 40,000  Level FlightAware Transoceanic
Mon 10:25:00 PM 48.6866 -174.2611 262° West 524 603 40,000  Level FlightAware Transoceanic
Mon 10:26:00 PM 48.6663 -174.4762 262° West 524 603 40,000  Level FlightAware Transoceanic
Mon 10:27:00 PM 48.6456 -174.6912 262° West 524 603 40,000  Level FlightAware Transoceanic
Mon 10:28:00 PM 48.6245 -174.9060 261° West 524 603 40,000  Level FlightAware Transoceanic
Mon 10:29:00 PM 48.6030 -175.1206 261° West 524 603 40,000  Level FlightAware Transoceanic
Mon 10:30:00 PM 48.5811 -175.3351 261° West 524 603 40,000  Level FlightAware Transoceanic
Mon 10:31:00 PM 48.5588 -175.5493 261° West 524 603 40,000  Level FlightAware Transoceanic
Mon 10:32:00 PM 48.5362 -175.7634 261° West 524 603 40,000  Level FlightAware Transoceanic
Mon 10:33:00 PM 48.5131 -175.9772 261° West 524 603 40,000  Level FlightAware Transoceanic
Mon 10:33:25 PM 48.5167 -175.9667 261° West 520 598 40,000  Level Oakland Oceanic (ODAPS)
Mon 10:34:00 PM 48.4896 -176.1909 261° West 524 603 40,000  Level FlightAware Transoceanic
Mon 10:35:00 PM 48.4657 -176.4044 260° West 524 603 40,000  Level FlightAware Transoceanic
Mon 10:36:00 PM 48.4414 -176.6176 260° West 524 603 40,000  Level FlightAware Transoceanic
Mon 10:37:00 PM 48.4168 -176.8307 260° West 524 603 40,000  Level FlightAware Transoceanic
Mon 10:38:00 PM 48.3917 -177.0435 260° West 524 603 40,000  Level FlightAware Transoceanic
Mon 10:39:00 PM 48.3688 -177.2490 260° West 520 598 40,000  Level FlightAware Transoceanic
Mon 10:40:00 PM 48.3428 -177.4620 259° West 520 598 40,000  Level FlightAware Transoceanic
Mon 10:41:00 PM 48.3163 -177.6748 259° West 520 598 40,000  Level FlightAware Transoceanic
Mon 10:42:00 PM 48.2895 -177.8873 259° West 520 598 40,000  Level FlightAware Transoceanic
Mon 10:43:00 PM 48.2623 -178.0997 259° West 520 598 40,000  Level FlightAware Transoceanic
Mon 10:44:00 PM 48.2347 -178.3118 259° West 520 598 40,000  Level FlightAware Transoceanic
Mon 10:45:00 PM 48.2067 -178.5236 259° West 520 598 40,000  Level FlightAware Transoceanic
Mon 10:46:00 PM 48.1784 -178.7352 259° West 520 598 40,000  Level FlightAware Transoceanic
Mon 10:47:00 PM 48.1496 -178.9467 258° West 520 598 40,000  Level FlightAware Transoceanic
Mon 10:47:16 PM 48.1500 -178.9333 259° West 520 598 40,000  Level Oakland Oceanic (ODAPS)
Mon 10:48:00 PM 48.1204 -179.1578 258° West 520 598 40,000  Level FlightAware Transoceanic
Mon 10:49:00 PM 48.0909 -179.3687 258° West 520 598 40,000  Level FlightAware Transoceanic
Mon 10:50:00 PM 48.0610 -179.5794 258° West 520 598 40,000  Level FlightAware Transoceanic
Mon 10:51:00 PM 48.0307 -179.7898 258° West 520 598 40,000  Level FlightAware Transoceanic
Mon 10:52:00 PM 48.0000 -180.0000 257° West 520 598 40,000  Level FlightAware Transoceanic
Mon 10:52:34 PM 48.0000 180.0000 257° West 492 566 40,000  Level Oakland Oceanic (ODAPS)
Mon 10:53:00 PM 47.9699 179.8010 257° West 520 598 40,000  Level FlightAware Transoceanic
Mon 10:54:00 PM 47.9395 179.6022 257° West 520 598 40,000  Level FlightAware Transoceanic
Mon 10:55:00 PM 47.9088 179.4036 257° West 520 598 40,000  Level FlightAware Transoceanic
Mon 10:56:00 PM 47.8777 179.2053 257° West 520 598 40,000  Level FlightAware Transoceanic
Mon 10:57:00 PM 47.8463 179.0072 257° West 520 598 40,000  Level FlightAware Transoceanic
Mon 10:58:00 PM 47.8145 178.8094 256° West 492 566 40,000  Level FlightAware Transoceanic
Mon 10:59:00 PM 47.7824 178.6118 256° West 492 566 40,000  Level FlightAware Transoceanic
Mon 11:00:00 PM 47.7499 178.4144 256° West 492 566 40,000  Level FlightAware Transoceanic
Mon 11:01:00 PM 47.7172 178.2173 256° West 492 566 40,000  Level FlightAware Transoceanic
Mon 11:01:08 PM 47.7333 178.3000 256° West 474 545 40,000  Level Oakland Oceanic (ODAPS)
Mon 11:02:00 PM 47.6840 178.0205 256° West 492 566 40,000  Level FlightAware Transoceanic
Mon 11:03:00 PM 47.6506 177.8239 256° West 492 566 40,000  Level FlightAware Transoceanic
Mon 11:04:00 PM 47.6168 177.6275 256° West 492 566 40,000  Level FlightAware Transoceanic
Mon 11:05:00 PM 47.5826 177.4314 255° West 492 566 40,000  Level FlightAware Transoceanic
Mon 11:06:00 PM 47.5482 177.2356 255° West 492 566 40,000  Level FlightAware Transoceanic
Mon 11:07:00 PM 47.5374 177.1632 255° West 474 545 40,000  Level FlightAware Transoceanic
Mon 11:08:00 PM 47.5037 176.9746 255° West 474 545 40,000  Level FlightAware Transoceanic
Mon 11:09:00 PM 47.4696 176.7862 255° West 474 545 40,000  Level FlightAware Transoceanic
Mon 11:10:00 PM 47.4353 176.5980 255° West 474 545 40,000  Level FlightAware Transoceanic
Mon 11:11:00 PM 47.4006 176.4101 255° West 474 545 40,000  Level FlightAware Transoceanic
Mon 11:12:00 PM 47.3656 176.2225 255° West 474 545 40,000  Level FlightAware Transoceanic
Mon 11:13:00 PM 47.3304 176.0351 254° West 474 545 40,000  Level FlightAware Transoceanic
Mon 11:14:00 PM 47.2948 175.8479 254° West 474 545 40,000  Level FlightAware Transoceanic
Mon 11:15:00 PM 47.2589 175.6611 254° West 474 545 40,000  Level FlightAware Transoceanic
Mon 11:15:00 PM 47.2667 175.7000 254° West 480 552 40,000  Level Oakland Oceanic (ODAPS)
Mon 11:16:00 PM 47.2227 175.4744 254° West 474 545 40,000  Level FlightAware Transoceanic
Mon 11:17:00 PM 47.1862 175.2880 254° West 474 545 40,000  Level FlightAware Transoceanic
Mon 11:18:00 PM 47.1494 175.1019 254° West 474 545 40,000  Level FlightAware Transoceanic
Mon 11:19:00 PM 47.1123 174.9160 254° West 474 545 40,000  Level FlightAware Transoceanic
Mon 11:20:00 PM 47.0749 174.7304 253° West 474 545 40,000  Level FlightAware Transoceanic
Mon 11:21:00 PM 47.0438 174.5762 253° West 480 552 40,000  Level FlightAware Transoceanic
Mon 11:22:00 PM 47.0056 174.3898 253° West 480 552 40,000  Level FlightAware Transoceanic
Mon 11:23:00 PM 46.9671 174.2038 253° West 480 552 40,000  Level FlightAware Transoceanic
Mon 11:24:00 PM 46.9283 174.0179 253° West 480 552 40,000  Level FlightAware Transoceanic
Mon 11:25:00 PM 46.8892 173.8324 253° West 480 552 40,000  Level FlightAware Transoceanic
Mon 11:26:00 PM 46.8498 173.6470 253° West 480 552 40,000  Level FlightAware Transoceanic
Mon 11:27:00 PM 46.8101 173.4620 253° West 480 552 40,000  Level FlightAware Transoceanic
Mon 11:28:00 PM 46.7700 173.2773 252° West 480 552 40,000 508 Level FlightAware Transoceanic
Mon 11:28:58 PM 46.7333 173.1167 252° West 489 563 41,000  Climbing Oakland Oceanic (ODAPS)
Mon 11:29:00 PM 46.7297 173.0928 252° West 480 552 40,000 -968 Descending FlightAware Transoceanic
Mon 11:30:00 PM 46.6891 172.9086 252° West 480 552 40,000  Level FlightAware Transoceanic
Mon 11:31:00 PM 46.6482 172.7247 252° West 480 552 40,000  Level FlightAware Transoceanic
Mon 11:32:00 PM 46.6071 172.5410 252° West 480 552 40,000  Level FlightAware Transoceanic
Mon 11:33:00 PM 46.5656 172.3577 252° West 480 552 40,000  Level FlightAware Transoceanic
Mon 11:34:00 PM 46.5238 172.1746 252° West 480 552 40,000 500 Level FlightAware Transoceanic
Mon 11:35:00 PM 46.4683 171.9381 251° West 489 563 41,000 500 Climbing FlightAware Transoceanic
Mon 11:36:00 PM 46.4229 171.7428 251° West 489 563 41,000  Level FlightAware Transoceanic
Mon 11:37:00 PM 46.3773 171.5479 251° West 489 563 41,000  Level FlightAware Transoceanic
Mon 11:38:00 PM 46.3312 171.3532 251° West 489 563 41,000  Level FlightAware Transoceanic
Mon 11:39:00 PM 46.2849 171.1589 251° West 489 563 41,000  Level FlightAware Transoceanic
Mon 11:40:00 PM 46.2382 170.9649 251° West 489 563 41,000  Level FlightAware Transoceanic
Mon 11:41:00 PM 46.1912 170.7713 251° West 489 563 41,000  Level FlightAware Transoceanic
Mon 11:42:00 PM 46.1439 170.5780 250° West 489 563 41,000  Level FlightAware Transoceanic
Mon 11:42:46 PM 46.1333 170.5167 250° West 502 578 41,000  Level Oakland Oceanic (ODAPS)
Mon 11:43:00 PM 46.0963 170.3850 250° West 489 563 41,000  Level FlightAware Transoceanic
Mon 11:44:00 PM 46.0483 170.1923 250° West 489 563 41,000  Level FlightAware Transoceanic
Mon 11:45:00 PM 46.0000 170.0000 244° Southwest 489 563 41,000  Level FlightAware Transoceanic
Mon 11:45:39 PM 46.0000 170.0000 244° Southwest 493 567 41,000  Level Oakland Oceanic (ODAPS)
Mon 11:46:00 PM 45.9427 169.8279 244° Southwest 489 563 41,000  Level FlightAware Transoceanic
Mon 11:47:00 PM 45.8852 169.6562 244° Southwest 489 563 41,000  Level FlightAware Transoceanic
Mon 11:48:00 PM 45.8274 169.4848 244° Southwest 502 578 41,000  Level FlightAware Transoceanic
Mon 11:49:00 PM 45.7693 169.3138 244° Southwest 502 578 41,000  Level FlightAware Transoceanic
Mon 11:50:00 PM 45.7110 169.1431 244° Southwest 502 578 41,000  Level FlightAware Transoceanic
Mon 11:51:00 PM 45.6407 168.9388 244° Southwest 493 567 41,000  Level FlightAware Transoceanic
Mon 11:52:00 PM 45.5799 168.7633 244° Southwest 493 567 41,000  Level FlightAware Transoceanic
Mon 11:53:00 PM 45.5188 168.5881 243° Southwest 493 567 41,000  Level FlightAware Transoceanic
Mon 11:54:00 PM 45.4574 168.4133 243° Southwest 493 567 41,000  Level FlightAware Transoceanic
Mon 11:55:00 PM 45.3958 168.2390 243° Southwest 493 567 41,000  Level FlightAware Transoceanic
Mon 11:56:00 PM 45.3339 168.0650 243° Southwest 493 567 41,000  Level FlightAware Transoceanic
Mon 11:56:37 PM 45.3167 168.0333 243° Southwest 494 568 41,000  Level Oakland Oceanic (ODAPS)
Mon 11:57:00 PM 45.2717 167.8913 243° Southwest 493 567 41,000  Level FlightAware Transoceanic
Mon 11:58:00 PM 45.2093 167.7181 243° Southwest 493 567 41,000  Level FlightAware Transoceanic
Mon 11:59:00 PM 45.1466 167.5452 243° Southwest 493 567 41,000  Level FlightAware Transoceanic
Tue 12:00:00 AM 45.0837 167.3727 243° Southwest 493 567 41,000  Level FlightAware Transoceanic
Tue 12:01:00 AM 45.0205 167.2006 242° Southwest 493 567 41,000  Level FlightAware Transoceanic
Tue 12:02:00 AM 44.9416 167.0016 242° Southwest 494 568 41,000  Level FlightAware Transoceanic
Tue 12:03:00 AM 44.8782 166.8310 242° Southwest 494 568 41,000  Level FlightAware Transoceanic
Tue 12:04:00 AM 44.8146 166.6607 242° Southwest 494 568 41,000  Level FlightAware Transoceanic
Tue 12:05:00 AM 44.7507 166.4908 242° Southwest 494 568 41,000  Level FlightAware Transoceanic
Tue 12:06:00 AM 44.6865 166.3213 242° Southwest 494 568 41,000  Level FlightAware Transoceanic
Tue 12:07:00 AM 44.6221 166.1522 242° Southwest 494 568 41,000  Level FlightAware Transoceanic
Tue 12:08:00 AM 44.5574 165.9834 242° Southwest 494 568 41,000  Level FlightAware Transoceanic
Tue 12:09:00 AM 44.4925 165.8150 242° Southwest 494 568 41,000  Level FlightAware Transoceanic
Tue 12:10:00 AM 44.4274 165.6470 241° Southwest 494 568 41,000  Level FlightAware Transoceanic
Tue 12:10:29 AM 44.4333 165.6667 241° Southwest 481 554 41,000  Level Oakland Oceanic (ODAPS)
Tue 12:11:00 AM 44.3620 165.4794 241° Southwest 494 568 41,000  Level FlightAware Transoceanic
Tue 12:12:00 AM 44.2963 165.3121 241° Southwest 494 568 41,000  Level FlightAware Transoceanic
Tue 12:13:00 AM 44.2305 165.1452 241° Southwest 494 568 41,000  Level FlightAware Transoceanic
Tue 12:14:00 AM 44.1643 164.9787 241° Southwest 494 568 41,000  Level FlightAware Transoceanic
Tue 12:15:00 AM 44.0980 164.8126 241° Southwest 494 568 41,000  Level FlightAware Transoceanic
Tue 12:16:00 AM 44.0476 164.6906 241° Southwest 481 554 41,000  Level FlightAware Transoceanic
Tue 12:17:00 AM 43.9825 164.5292 241° Southwest 481 554 41,000  Level FlightAware Transoceanic
Tue 12:18:00 AM 43.9171 164.3681 241° Southwest 481 554 41,000  Level FlightAware Transoceanic
Tue 12:19:00 AM 43.8516 164.2074 240° Southwest 481 554 41,000  Level FlightAware Transoceanic
Tue 12:20:00 AM 43.7858 164.0470 240° Southwest 481 554 41,000  Level FlightAware Transoceanic
Tue 12:21:00 AM 43.7198 163.8870 240° Southwest 481 554 41,000  Level FlightAware Transoceanic
Tue 12:22:00 AM 43.6536 163.7273 240° Southwest 481 554 41,000  Level FlightAware Transoceanic
Tue 12:23:00 AM 43.5871 163.5680 240° Southwest 481 554 41,000  Level FlightAware Transoceanic
Tue 12:24:00 AM 43.5205 163.4091 240° Southwest 481 554 41,000  Level FlightAware Transoceanic
Tue 12:25:00 AM 43.4536 163.2505 240° Southwest 481 554 41,000  Level FlightAware Transoceanic
Tue 12:26:00 AM 43.3865 163.0922 240° Southwest 481 554 41,000  Level FlightAware Transoceanic
Tue 12:27:00 AM 43.3192 162.9343 240° Southwest 481 554 41,000  Level FlightAware Transoceanic
Tue 12:28:00 AM 43.2516 162.7767 239° Southwest 481 554 41,000  Level FlightAware Transoceanic
Tue 12:29:00 AM 43.1839 162.6195 239° Southwest 481 554 41,000  Level FlightAware Transoceanic
Tue 12:30:00 AM 43.1159 162.4627 239° Southwest 481 554 41,000  Level FlightAware Transoceanic
Tue 12:31:00 AM 43.0477 162.3062 239° Southwest 481 554 41,000  Level FlightAware Transoceanic
Tue 12:32:00 AM 42.9793 162.1500 239° Southwest 481 554 41,000  Level FlightAware Transoceanic
Tue 12:33:00 AM 42.9107 161.9942 239° Southwest 481 554 41,000  Level FlightAware Transoceanic
Tue 12:34:00 AM 42.8419 161.8387 239° Southwest 481 554 41,000  Level FlightAware Transoceanic
Tue 12:35:00 AM 42.7729 161.6836 239° Southwest 481 554 41,000  Level FlightAware Transoceanic
Tue 12:36:00 AM 42.7036 161.5288 239° Southwest 481 554 41,000  Level FlightAware Transoceanic
Tue 12:37:00 AM 42.6342 161.3744 238° Southwest 481 554 41,000  Level FlightAware Transoceanic
Tue 12:38:00 AM 42.5645 161.2203 238° Southwest 481 554 41,000  Level FlightAware Transoceanic
Tue 12:39:00 AM 42.4947 161.0666 238° Southwest 481 554 41,000  Level FlightAware Transoceanic
Tue 12:40:00 AM 42.4246 160.9132 238° Southwest 481 554 41,000  Level FlightAware Transoceanic
Tue 12:41:00 AM 42.3544 160.7601 238° Southwest 481 554 41,000  Level FlightAware Transoceanic
Tue 12:42:00 AM 42.2839 160.6074 238° Southwest 481 554 41,000  Level FlightAware Transoceanic
Tue 12:43:00 AM 42.2132 160.4551 238° Southwest 481 554 41,000  Level FlightAware Transoceanic
Tue 12:44:00 AM 42.1423 160.3030 238° Southwest 481 554 41,000  Level FlightAware Transoceanic
Tue 12:45:00 AM 42.0713 160.1514 238° Southwest 481 554 41,000  Level FlightAware Transoceanic
Tue 12:46:00 AM 42.0000 160.0000 246° West 481 554 41,000  Level FlightAware Transoceanic
Tue 12:47:00 AM 41.9491 159.8446 246° West 481 554 41,000  Level FlightAware Transoceanic
Tue 12:48:00 AM 41.8981 159.6895 246° West 481 554 41,000  Level FlightAware Transoceanic
Tue 12:49:00 AM 41.8468 159.5346 246° West 481 554 41,000  Level FlightAware Transoceanic
Tue 12:50:00 AM 41.7953 159.3799 246° West 481 554 41,000  Level FlightAware Transoceanic
Tue 12:51:00 AM 41.7436 159.2255 246° West 481 554 41,000  Level FlightAware Transoceanic
Tue 12:52:00 AM 41.6917 159.0714 246° West 481 554 41,000  Level FlightAware Transoceanic
Tue 12:53:00 AM 41.6396 158.9175 246° West 481 554 41,000  Level FlightAware Transoceanic
Tue 12:54:00 AM 41.5873 158.7638 245° Southwest 481 554 41,000  Level FlightAware Transoceanic
Tue 12:55:00 AM 41.5348 158.6104 245° Southwest 481 554 41,000  Level FlightAware Transoceanic
Tue 12:56:00 AM 41.4820 158.4573 245° Southwest 481 554 41,000  Level FlightAware Transoceanic
Tue 12:57:00 AM 41.4291 158.3044 245° Southwest 481 554 41,000  Level FlightAware Transoceanic
Tue 12:58:00 AM 41.3760 158.1517 245° Southwest 481 554 41,000  Level FlightAware Transoceanic
Tue 12:59:00 AM 41.3227 157.9993 245° Southwest 481 554 41,000  Level FlightAware Transoceanic
Tue 01:00:00 AM 41.2691 157.8472 245° Southwest 481 554 41,000  Level FlightAware Transoceanic
Tue 01:01:00 AM 41.2154 157.6953 245° Southwest 481 554 41,000  Level FlightAware Transoceanic
Tue 01:02:00 AM 41.1615 157.5436 245° Southwest 481 554 41,000  Level FlightAware Transoceanic
Tue 01:03:00 AM 41.1074 157.3922 245° Southwest 481 554 41,000  Level FlightAware Transoceanic
Tue 01:04:00 AM 41.0530 157.2410 244° Southwest 481 554 41,000  Level FlightAware Transoceanic
Tue 01:05:00 AM 40.9985 157.0901 244° Southwest 481 554 41,000  Level FlightAware Transoceanic
Tue 01:06:00 AM 40.9438 156.9395 244° Southwest 481 554 41,000  Level FlightAware Transoceanic
Tue 01:07:00 AM 40.8889 156.7891 244° Southwest 481 554 41,000  Level FlightAware Transoceanic
Tue 01:08:00 AM 40.8338 156.6389 244° Southwest 481 554 41,000  Level FlightAware Transoceanic
Tue 01:09:00 AM 40.7785 156.4890 244° Southwest 481 554 41,000  Level FlightAware Transoceanic
Tue 01:10:00 AM 40.7230 156.3394 244° Southwest 481 554 41,000  Level FlightAware Transoceanic
Tue 01:11:00 AM 40.6673 156.1900 244° Southwest 481 554 41,000  Level FlightAware Transoceanic
Tue 01:12:00 AM 40.6114 156.0408 244° Southwest 481 554 41,000  Level FlightAware Transoceanic
Tue 01:13:00 AM 40.5554 155.8919 244° Southwest 481 554 41,000  Level FlightAware Transoceanic
Tue 01:14:00 AM 40.4991 155.7432 243° Southwest 481 554 41,000  Level FlightAware Transoceanic
Tue 01:15:00 AM 40.4426 155.5948 243° Southwest 481 554 41,000  Level FlightAware Transoceanic
Tue 01:16:00 AM 40.3860 155.4467 243° Southwest 481 554 41,000  Level FlightAware Transoceanic
Tue 01:17:00 AM 40.3292 155.2988 243° Southwest 481 554 41,000  Level FlightAware Transoceanic
Tue 01:18:00 AM 40.2721 155.1511 243° Southwest 481 554 41,000  Level FlightAware Transoceanic
Tue 01:19:00 AM 40.2149 155.0037 243° Southwest 481 554 41,000  Level FlightAware Transoceanic
Tue 01:20:00 AM 40.1575 154.8565 243° Southwest 481 554 41,000  Level FlightAware Transoceanic
Tue 01:21:00 AM 40.1000 154.7096 243° Southwest 481 554 41,000  Level FlightAware Transoceanic
Tue 01:22:00 AM 40.0422 154.5630 243° Southwest 481 554 41,000  Level FlightAware Transoceanic
Tue 01:23:00 AM 39.9842 154.4165 243° Southwest 481 554 41,000  Level FlightAware Transoceanic
Tue 01:24:00 AM 39.9261 154.2704 243° Southwest 481 554 41,000  Level FlightAware Transoceanic
Tue 01:25:00 AM 39.8678 154.1245 242° Southwest 481 554 41,000  Level FlightAware Transoceanic
Tue 01:26:00 AM 39.8093 153.9788 242° Southwest 481 554 41,000  Level FlightAware Transoceanic
Tue 01:27:00 AM 39.7506 153.8334 242° Southwest 481 554 41,000  Level FlightAware Transoceanic
Tue 01:28:00 AM 39.6918 153.6882 242° Southwest 481 554 41,000  Level FlightAware Transoceanic
Tue 01:29:00 AM 39.6327 153.5433 242° Southwest 481 554 41,000  Level FlightAware Transoceanic
Tue 01:30:00 AM 39.5735 153.3986 242° Southwest 481 554 41,000  Level FlightAware Transoceanic
Tue 01:31:00 AM 39.5141 153.2542 242° Southwest 481 554 41,000  Level FlightAware Transoceanic
Tue 01:32:00 AM 39.4545 153.1100 242° Southwest 481 554 41,000  Level FlightAware Transoceanic
Tue 01:33:00 AM 39.3948 152.9660 242° Southwest 481 554 41,000  Level FlightAware Transoceanic
Tue 01:34:00 AM 39.3348 152.8224 242° Southwest 481 554 41,000  Level FlightAware Transoceanic
Tue 01:35:00 AM 39.2747 152.6789 242° Southwest 481 554 41,000  Level FlightAware Transoceanic
Tue 01:36:00 AM 39.2144 152.5357 241° Southwest 481 554 41,000  Level FlightAware Transoceanic
Tue 01:37:00 AM 39.1540 152.3928 241° Southwest 481 554 41,000  Level FlightAware Transoceanic
Tue 01:38:00 AM 39.0933 152.2501 241° Southwest 481 554 41,000  Level FlightAware Transoceanic
Tue 01:39:00 AM 39.0325 152.1076 241° Southwest 481 554 41,000  Level FlightAware Transoceanic
Tue 01:40:00 AM 38.9715 151.9654 241° Southwest 481 554 41,000  Level FlightAware Transoceanic
Tue 01:41:00 AM 38.9104 151.8234 241° Southwest 481 554 41,000  Level FlightAware Transoceanic
Tue 01:42:00 AM 38.8491 151.6817 241° Southwest 481 554 41,000  Level FlightAware Transoceanic
Tue 01:43:00 AM 38.7876 151.5402 241° Southwest 481 554 41,000  Level FlightAware Transoceanic
Tue 01:44:00 AM 38.7259 151.3990 241° Southwest 481 554 41,000  Level FlightAware Transoceanic
Tue 01:45:00 AM 38.6641 151.2580 241° Southwest 481 554 41,000  Level FlightAware Transoceanic
Tue 01:46:00 AM 38.6021 151.1172 241° Southwest 481 554 41,000  Level FlightAware Transoceanic
Tue 01:47:00 AM 38.5399 150.9767 240° Southwest 481 554 41,000  Level FlightAware Transoceanic
Tue 01:48:00 AM 38.4775 150.8365 240° Southwest 481 554 41,000  Level FlightAware Transoceanic
Tue 01:49:00 AM 38.4150 150.6965 240° Southwest 481 554 41,000  Level FlightAware Transoceanic
Tue 01:50:00 AM 38.3523 150.5567 240° Southwest 481 554 41,000  Level FlightAware Transoceanic
Tue 01:51:00 AM 38.2895 150.4171 240° Southwest 481 554 41,000  Level FlightAware Transoceanic
Tue 01:52:00 AM 38.2265 150.2779 240° Southwest 481 554 41,000  Level FlightAware Transoceanic
Tue 01:53:00 AM 38.1633 150.1388 240° Southwest 481 554 41,000  Level FlightAware Transoceanic
Tue 01:54:00 AM 38.0993 149.9984 240° Southwest  Level FlightAware Approximate
Tue 01:55:00 AM 38.0999 149.9963 269° West  Level FlightAware Approximate
Tue 01:56:00 AM 38.0967 149.8341 269° West  Level FlightAware Approximate
Tue 01:57:00 AM 38.0933 149.6720 269° West  Level FlightAware Approximate
Tue 01:58:00 AM 38.0896 149.5098 268° West  Level FlightAware Approximate
Tue 01:59:00 AM 38.0858 149.3477 268° West  Level FlightAware Approximate
Tue 02:00:00 AM 38.0656 149.1896 250° West  Level FlightAware Approximate
Tue 02:01:00 AM 38.0208 149.0378 250° West  Level FlightAware Approximate
Tue 02:02:00 AM 37.9758 148.8862 249° West  Level FlightAware Approximate
Tue 02:03:00 AM 37.9306 148.7347 249° West  Level FlightAware Approximate
Tue 02:04:00 AM 37.8852 148.5835 249° West  Level FlightAware Approximate
Tue 02:05:00 AM 37.8396 148.4324 249° West  Level FlightAware Approximate
Tue 02:06:00 AM 37.7938 148.2816 249° West  Level FlightAware Approximate
Tue 02:07:00 AM 37.7479 148.1309 249° West  Level FlightAware Approximate
Tue 02:08:00 AM 37.7017 147.9804 249° West  Level FlightAware Approximate
Tue 02:09:00 AM 37.6478 147.8354 233° Southwest  Level FlightAware Approximate
Tue 02:10:00 AM 37.5705 147.7072 233° Southwest  Level FlightAware Approximate
Tue 02:11:00 AM 37.4930 147.5792 233° Southwest  Level FlightAware Approximate
Tue 02:12:00 AM 37.4153 147.4516 233° Southwest  Level FlightAware Approximate
Tue 02:13:00 AM 37.3375 147.3241 233° Southwest  Level FlightAware Approximate
Tue 02:14:00 AM 37.2596 147.1970 232° Southwest  Level FlightAware Approximate
Tue 02:15:00 AM 37.1816 147.0701 232° Southwest  Level FlightAware Approximate
Tue 02:16:00 AM 37.1034 146.9435 232° Southwest  Level FlightAware Approximate
Tue 02:16:29 AM 36.7320 146.7210 232° Southwest 465 535 41,000  Level FlightAware ADS-B
Tue 02:17:00 AM 37.0251 146.8171 232° Southwest  Level FlightAware Approximate
Tue 02:17:09 AM 36.6900 146.6270 241° Southwest 465 535 41,000  Level FlightAware ADS-B
Tue 02:17:44 AM 36.6540 146.5460 241° Southwest 465 535 41,000  Level FlightAware ADS-B
Tue 02:18:34 AM 36.6040 146.4340 241° Southwest 464 534 41,000  Level FlightAware ADS-B
Tue 02:19:27 AM 36.5530 146.3210 241° Southwest 465 535 41,000  Level FlightAware ADS-B
Tue 02:20:03 AM 36.5210 146.2500 241° Southwest 465 535 41,000  Level FlightAware ADS-B
Tue 02:20:41 AM 36.4880 146.1740 242° Southwest 465 535 41,000  Level FlightAware ADS-B
Tue 02:21:17 AM 36.4560 146.1020 241° Southwest 465 535 41,000  Level FlightAware ADS-B
Tue 02:21:53 AM 36.4240 146.0310 241° Southwest 465 535 41,000  Level FlightAware ADS-B
Tue 02:22:30 AM 36.3910 145.9570 241° Southwest 465 535 41,000  Level FlightAware ADS-B
Tue 02:23:06 AM 36.3590 145.8860 241° Southwest 465 535 41,000  Level FlightAware ADS-B
Tue 02:23:42 AM 36.3270 145.8140 241° Southwest 465 535 41,000  Level FlightAware ADS-B
Tue 02:24:19 AM 36.2940 145.7410 241° Southwest 465 535 41,000  Level FlightAware ADS-B
Tue 02:24:58 AM 36.2600 145.6630 242° Southwest 465 535 41,000  Level FlightAware ADS-B
Tue 02:25:34 AM 36.2280 145.5920 241° Southwest 465 535 41,000  Level FlightAware ADS-B
Tue 02:26:10 AM 36.1960 145.5210 241° Southwest 465 535 41,000  Level FlightAware ADS-B
Tue 02:26:46 AM 36.1640 145.4490 241° Southwest 465 535 41,000  Level FlightAware ADS-B
Tue 02:27:22 AM 36.1320 145.3780 241° Southwest 465 535 41,000  Level FlightAware ADS-B
Tue 02:28:00 AM 36.0870 145.0980 259° West 452 520 41,000  Level FlightAware ADS-B
Tue 02:28:40 AM 36.0710 144.9940 259° West 453 521 41,000  Level FlightAware ADS-B
Tue 02:29:35 AM 36.0520 144.8710 259° West 453 521 41,000  Level FlightAware ADS-B
Tue 02:30:10 AM 36.0360 144.7660 259° West 454 522 41,000  Level FlightAware ADS-B
Tue 02:30:45 AM 36.0220 144.6770 259° West 455 524 41,000  Level FlightAware ADS-B
Tue 02:31:35 AM 36.0020 144.5490 259° West 454 522 41,000  Level FlightAware ADS-B
Tue 02:32:12 AM 35.9910 144.4770 259° West 455 524 41,000  Level FlightAware ADS-B
Tue 02:32:49 AM 35.9800 144.3970 260° West 455 524 41,000  Level FlightAware ADS-B
Tue 02:33:25 AM 35.9690 144.3180 260° West 455 524 41,000  Level FlightAware ADS-B
Tue 02:34:01 AM 35.9570 144.2400 259° West 455 524 41,000  Level FlightAware ADS-B
Tue 02:34:38 AM 35.9460 144.1590 261° West 455 524 41,000  Level FlightAware ADS-B
Tue 02:35:14 AM 35.9350 144.0810 260° West 455 524 41,000 -2,372 Level FlightAware ADS-B
Tue 02:36:04 AM 35.8930 143.8690 256° West 461 531 37,600 -2,292 Descending FlightAware ADS-B
Tue 02:36:43 AM 35.8800 143.7840 259° West 461 531 37,600  Level FlightAware ADS-B
Tue 02:37:19 AM 35.8670 143.7050 259° West 461 531 37,600  Level FlightAware ADS-B
Tue 02:37:55 AM 35.8550 143.6260 259° West 461 531 37,600  Level FlightAware ADS-B
Tue 02:38:32 AM 35.8420 143.5440 259° West 461 531 37,600  Level FlightAware ADS-B
Tue 02:39:08 AM 35.8290 143.4650 259° West 461 531 37,600  Level FlightAware ADS-B
Tue 02:39:44 AM 35.8170 143.3860 259° West 461 531 37,600  Level FlightAware ADS-B
Tue 02:40:21 AM 35.8040 143.3050 259° West 461 531 37,600  Level FlightAware ADS-B
Tue 02:40:57 AM 35.7920 143.2260 259° West 461 531 37,600  Level FlightAware ADS-B
Tue 02:41:34 AM 35.7790 143.1450 259° West 461 531 37,600  Level FlightAware ADS-B
Tue 02:42:10 AM 35.7660 143.0660 259° West 461 531 37,600  Level FlightAware ADS-B
Tue 02:42:47 AM 35.7540 142.9850 260° West 461 531 37,600 -3,806 Level FlightAware ADS-B
Tue 02:44:34 AM 35.6940 142.5870 260° West 27,000 -4,752 Descending FlightAware ADS-B
Tue 02:45:16 AM 35.6790 142.4920 259° West 404 465 25,800 -1,680 Descending FlightAware ADS-B
Tue 02:45:49 AM 35.6670 142.4150 259° West 404 465 24,900 -1,652 Descending FlightAware ADS-B
Tue 02:46:25 AM 35.6560 142.3430 259° West 390 449 23,900 -2,000 Descending FlightAware ADS-B
Tue 02:47:04 AM 35.6430 142.2550 260° West 392 451 22,400 -2,278 Descending FlightAware ADS-B
Tue 02:47:44 AM 35.6520 142.1660 277° West 371 427 20,900 -2,483 Descending FlightAware ADS-B
Tue 02:48:31 AM 35.6690 142.0880 285° West 340 391 18,800 -2,925 Descending FlightAware ADS-B
Tue 02:49:04 AM 35.6860 142.0150 286° West 337 388 17,000 -2,348 Descending FlightAware ADS-B
Tue 02:49:40 AM 35.6990 141.9510 284° West 338 389 16,100 -638 Descending FlightAware ADS-B
Tue 02:50:38 AM 35.7130 141.8500 280° West 297 342 16,000 -69 Descending FlightAware ADS-B
Tue 02:51:07 AM 35.7190 141.8120 281° West 298 343 16,000 -387 Level FlightAware ADS-B
Tue 02:51:40 AM 35.7350 141.7580 290° West 300 345 15,600 -1,130 Descending FlightAware ADS-B
Tue 02:52:16 AM 35.7600 141.6950 296° West 300 345 14,700 -1,457 Descending FlightAware ADS-B
Tue 02:52:50 AM 35.7810 141.6410 296° West 297 342 13,900 -1,304 Descending FlightAware ADS-B
Tue 02:53:25 AM 35.7970 141.6010 296° West 300 345 13,200 -1,280 Descending FlightAware ADS-B
Tue 02:54:05 AM 35.8240 141.5320 296° West 297 342 12,300 -759 Descending FlightAware ADS-B
Tue 02:54:44 AM 35.8470 141.4720 295° West 291 335 12,200 -76 Descending FlightAware ADS-B
Tue 02:55:24 AM 35.8700 141.4090 294° West 294 338 12,200  Level FlightAware ADS-B
Tue 02:55:59 AM 35.8890 141.3590 295° West 294 338 12,200  Level FlightAware ADS-B
Tue 02:56:32 AM 35.9100 141.3030 295° West 295 339 12,200  Level FlightAware ADS-B
Tue 02:57:06 AM 35.9260 141.2500 290° West 291 335 12,200  Level FlightAware ADS-B
Tue 02:57:37 AM 35.9120 141.1990 251° West 290 334 12,200 -174 Level FlightAware ADS-B
Tue 02:58:15 AM 35.8880 141.1430 242° Southwest 289 333 12,000 -480 Descending FlightAware ADS-B
Tue 02:58:52 AM 35.8710 141.1050 241° Southwest 287 330 11,600 -1,026 Descending FlightAware ADS-B
Tue 02:59:31 AM 35.8420 141.0370 242° Southwest 286 329 10,700 -988 Descending FlightAware ADS-B
Tue 03:00:17 AM 35.8340 140.9670 262° West 269 310 10,200 -536 Descending FlightAware ADS-B
Tue 03:00:27 AM 35.8410 140.9520 300° West 269 310 10,200 -143 Level FlightAware ADS-B
Tue 03:00:59 AM 35.8600 140.9100 299° West 261 300 10,100 -480 Descending FlightAware ADS-B
Tue 03:01:17 AM 35.8630 140.8850 278° West 258 297 9,800 -1,000 Descending FlightAware ADS-B
Tue 03:01:41 AM 35.8520 140.8520 248° West 252 290 9,400 -900 Descending FlightAware ADS-B
Tue 03:01:57 AM 35.8420 140.8360 232° Southwest 253 291 9,200 -500 Descending FlightAware ADS-B
Tue 03:02:05 AM 35.8390 140.8250 251° West 254 292 9,200  Level FlightAware ADS-B
Tue 03:02:12 AM 35.8390 140.8160 270° West 255 293 9,200  Level FlightAware ADS-B
Tue 03:02:33 AM 35.8420 140.7830 276° West 255 293 9,200 -375 Level FlightAware ADS-B
Tue 03:02:44 AM 35.8470 140.7680 292° West 258 297 9,000 -1,263 Descending FlightAware ADS-B
Tue 03:02:52 AM 35.8530 140.7590 309° West 259 298 8,800 -1,286 Descending FlightAware ADS-B
Tue 03:03:12 AM 35.8690 140.7370 312° West 260 299 8,400 -800 Descending FlightAware ADS-B
Tue 03:03:37 AM 35.8870 140.7070 307° West 265 305 8,200 -273 Descending FlightAware ADS-B
Tue 03:03:56 AM 35.9020 140.6830 308° West 262 302 8,200  Level FlightAware ADS-B
Tue 03:04:10 AM 35.9120 140.6660 306° West 262 302 8,200  Level FlightAware ADS-B
Tue 03:04:30 AM 35.9260 140.6420 306° West 263 303 8,200  Level FlightAware ADS-B
Tue 03:04:46 AM 35.9380 140.6230 308° West 262 302 8,200  Level FlightAware ADS-B
Tue 03:05:04 AM 35.9510 140.6020 307° West 262 302 8,200  Level FlightAware ADS-B
Tue 03:05:26 AM 35.9670 140.5750 306° West 263 303 8,200  Level FlightAware ADS-B
Tue 03:05:50 AM 35.9850 140.5470 308° West 265 305 8,200  Level FlightAware ADS-B
Tue 03:06:10 AM 35.9990 140.5220 305° West 258 297 8,200  Level FlightAware ADS-B
Tue 03:06:31 AM 36.0140 140.4990 309° West 250 288 8,200 -450 Level FlightAware ADS-B
Tue 03:06:50 AM 36.0270 140.4770 306° West 245 282 7,900 -923 Descending FlightAware ADS-B
Tue 03:07:10 AM 36.0410 140.4540 307° West 239 275 7,600 -955 Descending FlightAware ADS-B
Tue 03:07:34 AM 36.0560 140.4280 306° West 235 270 7,200 -533 Descending FlightAware ADS-B
Tue 03:07:55 AM 36.0690 140.4060 306° West 237 273 7,200  Level FlightAware ADS-B
Tue 03:08:15 AM 36.0830 140.3840 308° West 237 273 7,200  Level FlightAware ADS-B
Tue 03:08:35 AM 36.0960 140.3620 306° West 228 262 7,200 -273 Level FlightAware ADS-B
Tue 03:08:59 AM 36.1100 140.3390 307° West 210 242 7,000 -500 Descending FlightAware ADS-B
Tue 03:09:11 AM 36.1160 140.3260 300° West 206 237 6,900 -900 Descending FlightAware ADS-B
Tue 03:09:19 AM 36.1180 140.3180 287° West 204 235 6,700 -1,143 Descending FlightAware ADS-B
Tue 03:09:32 AM 36.1200 140.3030 279° West 203 234 6,500 -811 Descending FlightAware ADS-B
Tue 03:09:56 AM 36.1200 140.2800 270° West 204 235 6,200 -632 Descending FlightAware ADS-B
Tue 03:10:10 AM 36.1200 140.2660 270° West 205 236 6,100 -649 Descending FlightAware ADS-B
Tue 03:10:33 AM 36.1200 140.2310 270° West 196 226 5,800 -769 Descending FlightAware ADS-B
Tue 03:10:49 AM 36.1190 140.2140 266° West 194 223 5,600 -973 Descending FlightAware ADS-B
Tue 03:11:10 AM 36.1190 140.1910 270° West 193 222 5,200 -1,286 Descending FlightAware ADS-B
Tue 03:11:17 AM 36.1170 140.1830 253° West 193 222 5,000 -1,091 Descending FlightAware ADS-B
Tue 03:11:21 AM 36.1150 140.1790 238° Southwest 194 223 5,000 -500 Level FlightAware ADS-B
Tue 03:11:29 AM 36.1110 140.1730 230° Southwest 193 222 4,900 -1,125 Descending FlightAware ADS-B
Tue 03:11:37 AM 36.1040 140.1690 205° Southwest 194 223 4,700 -1,333 Descending FlightAware ADS-B
Tue 03:11:47 AM 36.0950 140.1680 185° South 197 227 4,500 -1,000 Descending FlightAware ADS-B
Tue 03:12:07 AM 36.0770 140.1700 175° South 197 227 4,200 -450 Descending FlightAware ADS-B
Tue 03:12:27 AM 36.0590 140.1730 172° South 193 222 4,200  Level FlightAware ADS-B
Tue 03:12:43 AM 36.0450 140.1760 170° South 195 224 4,200  Level FlightAware ADS-B
Tue 03:12:55 AM 36.0350 140.1810 158° South 195 224 4,200  Level FlightAware ADS-B
Tue 03:13:11 AM 36.0220 140.1890 154° Southeast 193 222 4,200  Level FlightAware ADS-B
Tue 03:13:31 AM 36.0070 140.2000 149° Southeast 192 221 4,200  Level FlightAware ADS-B
Tue 03:13:51 AM 35.9920 140.2110 149° Southeast 191 220 4,200  Level FlightAware ADS-B
Tue 03:14:05 AM 35.9800 140.2190 152° Southeast 192 221 4,200  Level FlightAware ADS-B
Tue 03:14:27 AM 35.9640 140.2310 149° Southeast 189 217 4,200 -143 Level FlightAware ADS-B
Tue 03:14:47 AM 35.9490 140.2420 149° Southeast 174 200 4,100 -600 Descending FlightAware ADS-B
Tue 03:15:07 AM 35.9350 140.2520 150° Southeast 174 200 3,800 -1,000 Descending FlightAware ADS-B
Tue 03:15:29 AM 35.9200 140.2630 149° Southeast 178 205 3,400 -1,000 Descending FlightAware ADS-B
Tue 03:15:49 AM 35.9050 140.2730 152° Southeast 175 201 3,100 -938 Descending FlightAware ADS-B
Tue 03:16:01 AM 35.8980 140.2790 145° Southeast 174 200 2,900 -833 Descending FlightAware ADS-B
Tue 03:16:25 AM 35.8810 140.2910 150° Southeast 167 192 2,600 -818 Descending FlightAware ADS-B
Tue 03:16:45 AM 35.8680 140.3010 148° Southeast 160 184 2,300 -750 Descending FlightAware ADS-B
Tue 03:17:05 AM 35.8560 140.3090 152° Southeast 155 178 2,100 -818 Descending FlightAware ADS-B
Tue 03:17:29 AM 35.8410 140.3200 149° Southeast 153 176 1,700 -800 Descending FlightAware ADS-B
Tue 03:17:50 AM 35.8280 140.3300 148° Southeast 148 170 1,500 -750 Descending FlightAware ADS-B
Tue 03:18:01 AM 35.8220 140.3340 152° Southeast 143 165 1,300 -857 Descending FlightAware ADS-B
Tue 03:18:25 AM 35.8080 140.3440 150° Southeast 139 160 1,000 -667 Descending FlightAware ADS-B
Tue 03:18:37 AM 35.8010 140.3490 150° Southeast 137 158 900 -563 Descending FlightAware ADS-B
Tue 03:18:57 AM 35.7900 140.3570 149° Southeast 138 159 700 -375 Descending FlightAware ADS-B
Tue 03:19:41 AM 35.7690 140.3720 150° Southeast 138 159 500 -273 Descending FlightAware ADS-B
Tue 03:22:00 AM 35.7647 140.3864 253° West  Level Estimated
Tue 03:23:00 AM 35.7647 140.3864 253° West  Level Estimated
Tue 03:24:00 AM 35.7647 140.3864 253° West  Level Estimated
Tue 03:25:00 AM 35.7647 140.3864 253° West  Level Estimated
Tue 03:26:00 AM 35.7647 140.3864 253° West  Level Estimated

Login

Don't have an account? Register now (free) for customized features, flight alerts, and more!